<?xml version="1.0" encoding="UTF-8" standalone="no" ?>
<gpx xmlns="http://www.topografix.com/GPX/1/1" xmlns:xsi="http://www.w3.org/2001/XMLSchema-instance" xsi:schemaLocation="http://www.topografix.com/GPX/1/1 http://www.topografix.com/GPX/1/1/gpx.xsd" version="1.1" creator="VisuGPX - https://www.visugpx.com">
  <metadata>
    <name>coq in 2007 28kms</name>
    <desc><![CDATA[depart de st romain d\'ay]]></desc>
  </metadata>
  <trk>
    <name><![CDATA[coq in 07]]></name>
    <trkseg>
      <trkpt lat="45.16495" lon="4.66631">
        <ele>454</ele>
        <time>2007-04-09T13:42:50Z</time>
      </trkpt>
      <trkpt lat="45.16495" lon="4.66629">
        <ele>452</ele>
        <time>2007-04-09T13:43:18Z</time>
      </trkpt>
      <trkpt lat="45.16492" lon="4.66597">
        <ele>451</ele>
        <time>2007-04-09T13:43:28Z</time>
      </trkpt>
      <trkpt lat="45.16486" lon="4.66539">
        <ele>450</ele>
        <time>2007-04-09T13:43:40Z</time>
      </trkpt>
      <trkpt lat="45.16482" lon="4.66507">
        <ele>449</ele>
        <time>2007-04-09T13:43:50Z</time>
      </trkpt>
      <trkpt lat="45.16477" lon="4.66494">
        <ele>450</ele>
        <time>2007-04-09T13:43:55Z</time>
      </trkpt>
      <trkpt lat="45.16462" lon="4.66492">
        <ele>449</ele>
        <time>2007-04-09T13:44:01Z</time>
      </trkpt>
      <trkpt lat="45.16454" lon="4.66462">
        <ele>450</ele>
        <time>2007-04-09T13:44:09Z</time>
      </trkpt>
      <trkpt lat="45.16454" lon="4.66391">
        <ele>451</ele>
        <time>2007-04-09T13:44:21Z</time>
      </trkpt>
      <trkpt lat="45.16447" lon="4.66305">
        <ele>451</ele>
        <time>2007-04-09T13:44:33Z</time>
      </trkpt>
      <trkpt lat="45.16447" lon="4.66219">
        <ele>451</ele>
        <time>2007-04-09T13:44:45Z</time>
      </trkpt>
      <trkpt lat="45.16443" lon="4.66183">
        <ele>451</ele>
        <time>2007-04-09T13:44:51Z</time>
      </trkpt>
      <trkpt lat="45.16426" lon="4.66172">
        <ele>451</ele>
        <time>2007-04-09T13:44:57Z</time>
      </trkpt>
      <trkpt lat="45.16424" lon="4.66177">
        <ele>451</ele>
        <time>2007-04-09T13:44:59Z</time>
      </trkpt>
      <trkpt lat="45.16422" lon="4.66177">
        <ele>451</ele>
        <time>2007-04-09T13:45:01Z</time>
      </trkpt>
      <trkpt lat="45.16413" lon="4.66164">
        <ele>452</ele>
        <time>2007-04-09T13:45:07Z</time>
      </trkpt>
      <trkpt lat="45.16411" lon="4.66168">
        <ele>452</ele>
        <time>2007-04-09T13:45:08Z</time>
      </trkpt>
      <trkpt lat="45.16415" lon="4.66179">
        <ele>453</ele>
        <time>2007-04-09T13:45:18Z</time>
      </trkpt>
      <trkpt lat="45.16411" lon="4.66187">
        <ele>460</ele>
        <time>2007-04-09T13:45:43Z</time>
      </trkpt>
      <trkpt lat="45.16409" lon="4.662">
        <ele>457</ele>
        <time>2007-04-09T13:45:56Z</time>
      </trkpt>
      <trkpt lat="45.16409" lon="4.66215">
        <ele>457</ele>
        <time>2007-04-09T13:46:00Z</time>
      </trkpt>
      <trkpt lat="45.16404" lon="4.66226">
        <ele>456</ele>
        <time>2007-04-09T13:46:05Z</time>
      </trkpt>
      <trkpt lat="45.16394" lon="4.66243">
        <ele>456</ele>
        <time>2007-04-09T13:46:15Z</time>
      </trkpt>
      <trkpt lat="45.16387" lon="4.66247">
        <ele>455</ele>
        <time>2007-04-09T13:46:22Z</time>
      </trkpt>
      <trkpt lat="45.16379" lon="4.66249">
        <ele>455</ele>
        <time>2007-04-09T13:46:26Z</time>
      </trkpt>
      <trkpt lat="45.16374" lon="4.66252">
        <ele>455</ele>
        <time>2007-04-09T13:46:34Z</time>
      </trkpt>
      <trkpt lat="45.16381" lon="4.66249">
        <ele>454</ele>
        <time>2007-04-09T13:46:42Z</time>
      </trkpt>
      <trkpt lat="45.16379" lon="4.66247">
        <ele>455</ele>
        <time>2007-04-09T13:46:55Z</time>
      </trkpt>
      <trkpt lat="45.16377" lon="4.66249">
        <ele>455</ele>
        <time>2007-04-09T13:47:23Z</time>
      </trkpt>
      <trkpt lat="45.16374" lon="4.66258">
        <ele>454</ele>
        <time>2007-04-09T13:47:30Z</time>
      </trkpt>
      <trkpt lat="45.16377" lon="4.66267">
        <ele>454</ele>
        <time>2007-04-09T13:47:39Z</time>
      </trkpt>
      <trkpt lat="45.1637" lon="4.66271">
        <ele>452</ele>
        <time>2007-04-09T13:49:43Z</time>
      </trkpt>
      <trkpt lat="45.16368" lon="4.66269">
        <ele>452</ele>
        <time>2007-04-09T13:50:38Z</time>
      </trkpt>
      <trkpt lat="45.16377" lon="4.66267">
        <ele>451</ele>
        <time>2007-04-09T13:50:47Z</time>
      </trkpt>
      <trkpt lat="45.16379" lon="4.66267">
        <ele>448</ele>
        <time>2007-04-09T13:51:19Z</time>
      </trkpt>
      <trkpt lat="45.16379" lon="4.66264">
        <ele>449</ele>
        <time>2007-04-09T13:51:33Z</time>
      </trkpt>
      <trkpt lat="45.16377" lon="4.66241">
        <ele>450</ele>
        <time>2007-04-09T13:51:44Z</time>
      </trkpt>
      <trkpt lat="45.16368" lon="4.66217">
        <ele>450</ele>
        <time>2007-04-09T13:51:51Z</time>
      </trkpt>
      <trkpt lat="45.16377" lon="4.66198">
        <ele>450</ele>
        <time>2007-04-09T13:52:00Z</time>
      </trkpt>
      <trkpt lat="45.16398" lon="4.66174">
        <ele>451</ele>
        <time>2007-04-09T13:52:10Z</time>
      </trkpt>
      <trkpt lat="45.16439" lon="4.66155">
        <ele>452</ele>
        <time>2007-04-09T13:52:24Z</time>
      </trkpt>
      <trkpt lat="45.16456" lon="4.6614">
        <ele>455</ele>
        <time>2007-04-09T13:52:34Z</time>
      </trkpt>
      <trkpt lat="45.16488" lon="4.6611">
        <ele>457</ele>
        <time>2007-04-09T13:52:50Z</time>
      </trkpt>
      <trkpt lat="45.16525" lon="4.66093">
        <ele>462</ele>
        <time>2007-04-09T13:53:04Z</time>
      </trkpt>
      <trkpt lat="45.16552" lon="4.66071">
        <ele>464</ele>
        <time>2007-04-09T13:53:15Z</time>
      </trkpt>
      <trkpt lat="45.16585" lon="4.66052">
        <ele>465</ele>
        <time>2007-04-09T13:53:27Z</time>
      </trkpt>
      <trkpt lat="45.16632" lon="4.66028">
        <ele>467</ele>
        <time>2007-04-09T13:53:43Z</time>
      </trkpt>
      <trkpt lat="45.16655" lon="4.65996">
        <ele>467</ele>
        <time>2007-04-09T13:53:53Z</time>
      </trkpt>
      <trkpt lat="45.16692" lon="4.65962">
        <ele>470</ele>
        <time>2007-04-09T13:54:08Z</time>
      </trkpt>
      <trkpt lat="45.16726" lon="4.65925">
        <ele>471</ele>
        <time>2007-04-09T13:54:23Z</time>
      </trkpt>
      <trkpt lat="45.16773" lon="4.65874">
        <ele>474</ele>
        <time>2007-04-09T13:54:43Z</time>
      </trkpt>
      <trkpt lat="45.16823" lon="4.65814">
        <ele>475</ele>
        <time>2007-04-09T13:55:04Z</time>
      </trkpt>
      <trkpt lat="45.16857" lon="4.6578">
        <ele>476</ele>
        <time>2007-04-09T13:55:18Z</time>
      </trkpt>
      <trkpt lat="45.16896" lon="4.65752">
        <ele>478</ele>
        <time>2007-04-09T13:55:34Z</time>
      </trkpt>
      <trkpt lat="45.16911" lon="4.6575">
        <ele>479</ele>
        <time>2007-04-09T13:55:41Z</time>
      </trkpt>
      <trkpt lat="45.16934" lon="4.6576">
        <ele>483</ele>
        <time>2007-04-09T13:55:53Z</time>
      </trkpt>
      <trkpt lat="45.16952" lon="4.65773">
        <ele>484</ele>
        <time>2007-04-09T13:56:04Z</time>
      </trkpt>
      <trkpt lat="45.16973" lon="4.65795">
        <ele>485</ele>
        <time>2007-04-09T13:56:18Z</time>
      </trkpt>
      <trkpt lat="45.16999" lon="4.65822">
        <ele>488</ele>
        <time>2007-04-09T13:56:33Z</time>
      </trkpt>
      <trkpt lat="45.17014" lon="4.65844">
        <ele>488</ele>
        <time>2007-04-09T13:56:42Z</time>
      </trkpt>
      <trkpt lat="45.17037" lon="4.6584">
        <ele>489</ele>
        <time>2007-04-09T13:56:53Z</time>
      </trkpt>
      <trkpt lat="45.17076" lon="4.65837">
        <ele>494</ele>
        <time>2007-04-09T13:57:11Z</time>
      </trkpt>
      <trkpt lat="45.171" lon="4.65844">
        <ele>497</ele>
        <time>2007-04-09T13:57:22Z</time>
      </trkpt>
      <trkpt lat="45.1711" lon="4.65829">
        <ele>499</ele>
        <time>2007-04-09T13:57:30Z</time>
      </trkpt>
      <trkpt lat="45.17136" lon="4.65805">
        <ele>499</ele>
        <time>2007-04-09T13:57:42Z</time>
      </trkpt>
      <trkpt lat="45.17166" lon="4.65797">
        <ele>501</ele>
        <time>2007-04-09T13:57:56Z</time>
      </trkpt>
      <trkpt lat="45.1719" lon="4.65792">
        <ele>502</ele>
        <time>2007-04-09T13:58:08Z</time>
      </trkpt>
      <trkpt lat="45.17224" lon="4.65777">
        <ele>504</ele>
        <time>2007-04-09T13:58:25Z</time>
      </trkpt>
      <trkpt lat="45.17256" lon="4.65756">
        <ele>508</ele>
        <time>2007-04-09T13:58:41Z</time>
      </trkpt>
      <trkpt lat="45.17297" lon="4.6573">
        <ele>510</ele>
        <time>2007-04-09T13:58:58Z</time>
      </trkpt>
      <trkpt lat="45.17331" lon="4.65687">
        <ele>513</ele>
        <time>2007-04-09T13:59:18Z</time>
      </trkpt>
      <trkpt lat="45.17338" lon="4.65653">
        <ele>515</ele>
        <time>2007-04-09T13:59:32Z</time>
      </trkpt>
      <trkpt lat="45.1734" lon="4.65616">
        <ele>515</ele>
        <time>2007-04-09T13:59:47Z</time>
      </trkpt>
      <trkpt lat="45.1734" lon="4.65571">
        <ele>514</ele>
        <time>2007-04-09T14:00:03Z</time>
      </trkpt>
      <trkpt lat="45.1734" lon="4.65559">
        <ele>515</ele>
        <time>2007-04-09T14:00:12Z</time>
      </trkpt>
      <trkpt lat="45.1734" lon="4.6555">
        <ele>519</ele>
        <time>2007-04-09T14:00:30Z</time>
      </trkpt>
      <trkpt lat="45.17342" lon="4.65544">
        <ele>520</ele>
        <time>2007-04-09T14:00:33Z</time>
      </trkpt>
      <trkpt lat="45.17349" lon="4.65546">
        <ele>521</ele>
        <time>2007-04-09T14:00:37Z</time>
      </trkpt>
      <trkpt lat="45.17366" lon="4.65561">
        <ele>523</ele>
        <time>2007-04-09T14:00:50Z</time>
      </trkpt>
      <trkpt lat="45.17383" lon="4.65565">
        <ele>525</ele>
        <time>2007-04-09T14:01:00Z</time>
      </trkpt>
      <trkpt lat="45.17391" lon="4.65567">
        <ele>526</ele>
        <time>2007-04-09T14:01:05Z</time>
      </trkpt>
      <trkpt lat="45.17413" lon="4.65574">
        <ele>530</ele>
        <time>2007-04-09T14:01:18Z</time>
      </trkpt>
      <trkpt lat="45.1743" lon="4.65595">
        <ele>531</ele>
        <time>2007-04-09T14:01:31Z</time>
      </trkpt>
      <trkpt lat="45.17432" lon="4.65595">
        <ele>531</ele>
        <time>2007-04-09T14:01:32Z</time>
      </trkpt>
      <trkpt lat="45.17437" lon="4.65591">
        <ele>532</ele>
        <time>2007-04-09T14:01:36Z</time>
      </trkpt>
      <trkpt lat="45.17445" lon="4.65561">
        <ele>533</ele>
        <time>2007-04-09T14:01:49Z</time>
      </trkpt>
      <trkpt lat="45.17462" lon="4.65548">
        <ele>537</ele>
        <time>2007-04-09T14:02:01Z</time>
      </trkpt>
      <trkpt lat="45.1749" lon="4.65546">
        <ele>541</ele>
        <time>2007-04-09T14:02:17Z</time>
      </trkpt>
      <trkpt lat="45.17503" lon="4.65541">
        <ele>542</ele>
        <time>2007-04-09T14:02:25Z</time>
      </trkpt>
      <trkpt lat="45.17497" lon="4.65546">
        <ele>541</ele>
        <time>2007-04-09T14:02:31Z</time>
      </trkpt>
      <trkpt lat="45.17477" lon="4.65546">
        <ele>540</ele>
        <time>2007-04-09T14:02:37Z</time>
      </trkpt>
      <trkpt lat="45.17469" lon="4.65539">
        <ele>539</ele>
        <time>2007-04-09T14:02:41Z</time>
      </trkpt>
      <trkpt lat="45.17471" lon="4.65548">
        <ele>540</ele>
        <time>2007-04-09T14:02:48Z</time>
      </trkpt>
      <trkpt lat="45.17494" lon="4.65544">
        <ele>541</ele>
        <time>2007-04-09T14:03:05Z</time>
      </trkpt>
      <trkpt lat="45.17514" lon="4.65544">
        <ele>542</ele>
        <time>2007-04-09T14:03:19Z</time>
      </trkpt>
      <trkpt lat="45.17535" lon="4.65533">
        <ele>545</ele>
        <time>2007-04-09T14:03:36Z</time>
      </trkpt>
      <trkpt lat="45.1755" lon="4.65526">
        <ele>546</ele>
        <time>2007-04-09T14:03:49Z</time>
      </trkpt>
      <trkpt lat="45.17567" lon="4.65528">
        <ele>548</ele>
        <time>2007-04-09T14:04:02Z</time>
      </trkpt>
      <trkpt lat="45.17587" lon="4.65533">
        <ele>549</ele>
        <time>2007-04-09T14:04:16Z</time>
      </trkpt>
      <trkpt lat="45.17606" lon="4.65539">
        <ele>550</ele>
        <time>2007-04-09T14:04:28Z</time>
      </trkpt>
      <trkpt lat="45.17615" lon="4.65552">
        <ele>549</ele>
        <time>2007-04-09T14:04:32Z</time>
      </trkpt>
      <trkpt lat="45.17627" lon="4.65569">
        <ele>549</ele>
        <time>2007-04-09T14:04:35Z</time>
      </trkpt>
      <trkpt lat="45.17662" lon="4.65616">
        <ele>547</ele>
        <time>2007-04-09T14:04:42Z</time>
      </trkpt>
      <trkpt lat="45.17707" lon="4.65662">
        <ele>546</ele>
        <time>2007-04-09T14:04:52Z</time>
      </trkpt>
      <trkpt lat="45.17739" lon="4.65683">
        <ele>547</ele>
        <time>2007-04-09T14:05:03Z</time>
      </trkpt>
      <trkpt lat="45.17756" lon="4.65687">
        <ele>546</ele>
        <time>2007-04-09T14:05:11Z</time>
      </trkpt>
      <trkpt lat="45.17771" lon="4.65683">
        <ele>545</ele>
        <time>2007-04-09T14:06:03Z</time>
      </trkpt>
      <trkpt lat="45.17788" lon="4.65692">
        <ele>545</ele>
        <time>2007-04-09T14:06:07Z</time>
      </trkpt>
      <trkpt lat="45.17799" lon="4.65696">
        <ele>545</ele>
        <time>2007-04-09T14:06:09Z</time>
      </trkpt>
      <trkpt lat="45.1781" lon="4.65717">
        <ele>544</ele>
        <time>2007-04-09T14:06:13Z</time>
      </trkpt>
      <trkpt lat="45.17816" lon="4.65741">
        <ele>543</ele>
        <time>2007-04-09T14:06:16Z</time>
      </trkpt>
      <trkpt lat="45.17838" lon="4.65758">
        <ele>542</ele>
        <time>2007-04-09T14:06:19Z</time>
      </trkpt>
      <trkpt lat="45.17838" lon="4.65765">
        <ele>542</ele>
        <time>2007-04-09T14:06:20Z</time>
      </trkpt>
      <trkpt lat="45.17853" lon="4.65773">
        <ele>540</ele>
        <time>2007-04-09T14:06:26Z</time>
      </trkpt>
      <trkpt lat="45.17857" lon="4.6578">
        <ele>541</ele>
        <time>2007-04-09T14:06:34Z</time>
      </trkpt>
      <trkpt lat="45.17859" lon="4.65784">
        <ele>541</ele>
        <time>2007-04-09T14:06:37Z</time>
      </trkpt>
      <trkpt lat="45.17868" lon="4.65801">
        <ele>539</ele>
        <time>2007-04-09T14:06:43Z</time>
      </trkpt>
      <trkpt lat="45.17881" lon="4.65812">
        <ele>538</ele>
        <time>2007-04-09T14:06:48Z</time>
      </trkpt>
      <trkpt lat="45.17874" lon="4.65844">
        <ele>537</ele>
        <time>2007-04-09T14:06:52Z</time>
      </trkpt>
      <trkpt lat="45.17868" lon="4.65855">
        <ele>535</ele>
        <time>2007-04-09T14:06:54Z</time>
      </trkpt>
      <trkpt lat="45.17861" lon="4.65868">
        <ele>535</ele>
        <time>2007-04-09T14:06:56Z</time>
      </trkpt>
      <trkpt lat="45.17868" lon="4.65891">
        <ele>533</ele>
        <time>2007-04-09T14:07:00Z</time>
      </trkpt>
      <trkpt lat="45.17868" lon="4.6591">
        <ele>534</ele>
        <time>2007-04-09T14:07:03Z</time>
      </trkpt>
      <trkpt lat="45.17868" lon="4.65921">
        <ele>533</ele>
        <time>2007-04-09T14:07:05Z</time>
      </trkpt>
      <trkpt lat="45.17874" lon="4.65932">
        <ele>532</ele>
        <time>2007-04-09T14:07:07Z</time>
      </trkpt>
      <trkpt lat="45.17883" lon="4.65951">
        <ele>529</ele>
        <time>2007-04-09T14:07:11Z</time>
      </trkpt>
      <trkpt lat="45.17874" lon="4.65968">
        <ele>527</ele>
        <time>2007-04-09T14:07:13Z</time>
      </trkpt>
      <trkpt lat="45.17868" lon="4.6599">
        <ele>526</ele>
        <time>2007-04-09T14:07:15Z</time>
      </trkpt>
      <trkpt lat="45.17857" lon="4.66031">
        <ele>525</ele>
        <time>2007-04-09T14:07:19Z</time>
      </trkpt>
      <trkpt lat="45.17861" lon="4.6605">
        <ele>525</ele>
        <time>2007-04-09T14:07:21Z</time>
      </trkpt>
      <trkpt lat="45.17879" lon="4.66093">
        <ele>522</ele>
        <time>2007-04-09T14:07:26Z</time>
      </trkpt>
      <trkpt lat="45.17868" lon="4.6611">
        <ele>521</ele>
        <time>2007-04-09T14:07:28Z</time>
      </trkpt>
      <trkpt lat="45.17857" lon="4.66157">
        <ele>517</ele>
        <time>2007-04-09T14:07:33Z</time>
      </trkpt>
      <trkpt lat="45.17864" lon="4.66267">
        <ele>507</ele>
        <time>2007-04-09T14:07:44Z</time>
      </trkpt>
      <trkpt lat="45.17868" lon="4.66284">
        <ele>506</ele>
        <time>2007-04-09T14:07:46Z</time>
      </trkpt>
      <trkpt lat="45.17902" lon="4.66352">
        <ele>504</ele>
        <time>2007-04-09T14:07:54Z</time>
      </trkpt>
      <trkpt lat="45.17906" lon="4.66383">
        <ele>501</ele>
        <time>2007-04-09T14:07:58Z</time>
      </trkpt>
      <trkpt lat="45.17906" lon="4.66387">
        <ele>499</ele>
        <time>2007-04-09T14:08:01Z</time>
      </trkpt>
      <trkpt lat="45.17902" lon="4.66395">
        <ele>495</ele>
        <time>2007-04-09T14:08:06Z</time>
      </trkpt>
      <trkpt lat="45.17906" lon="4.66415">
        <ele>491</ele>
        <time>2007-04-09T14:08:11Z</time>
      </trkpt>
      <trkpt lat="45.17919" lon="4.6646">
        <ele>485</ele>
        <time>2007-04-09T14:08:22Z</time>
      </trkpt>
      <trkpt lat="45.17921" lon="4.66466">
        <ele>485</ele>
        <time>2007-04-09T14:08:23Z</time>
      </trkpt>
      <trkpt lat="45.17934" lon="4.66492">
        <ele>483</ele>
        <time>2007-04-09T14:08:27Z</time>
      </trkpt>
      <trkpt lat="45.17934" lon="4.66518">
        <ele>483</ele>
        <time>2007-04-09T14:08:31Z</time>
      </trkpt>
      <trkpt lat="45.17921" lon="4.6652">
        <ele>483</ele>
        <time>2007-04-09T14:08:33Z</time>
      </trkpt>
      <trkpt lat="45.17898" lon="4.66539">
        <ele>483</ele>
        <time>2007-04-09T14:08:37Z</time>
      </trkpt>
      <trkpt lat="45.17889" lon="4.66571">
        <ele>480</ele>
        <time>2007-04-09T14:08:42Z</time>
      </trkpt>
      <trkpt lat="45.17896" lon="4.66589">
        <ele>477</ele>
        <time>2007-04-09T14:08:45Z</time>
      </trkpt>
      <trkpt lat="45.17906" lon="4.66625">
        <ele>472</ele>
        <time>2007-04-09T14:08:50Z</time>
      </trkpt>
      <trkpt lat="45.1793" lon="4.66649">
        <ele>468</ele>
        <time>2007-04-09T14:08:55Z</time>
      </trkpt>
      <trkpt lat="45.17994" lon="4.66691">
        <ele>464</ele>
        <time>2007-04-09T14:09:09Z</time>
      </trkpt>
      <trkpt lat="45.18009" lon="4.66704">
        <ele>463</ele>
        <time>2007-04-09T14:09:13Z</time>
      </trkpt>
      <trkpt lat="45.18035" lon="4.66717">
        <ele>462</ele>
        <time>2007-04-09T14:09:18Z</time>
      </trkpt>
      <trkpt lat="45.18067" lon="4.66717">
        <ele>461</ele>
        <time>2007-04-09T14:09:24Z</time>
      </trkpt>
      <trkpt lat="45.1808" lon="4.66734">
        <ele>460</ele>
        <time>2007-04-09T14:09:29Z</time>
      </trkpt>
      <trkpt lat="45.18104" lon="4.66739">
        <ele>460</ele>
        <time>2007-04-09T14:09:34Z</time>
      </trkpt>
      <trkpt lat="45.18106" lon="4.66743">
        <ele>460</ele>
        <time>2007-04-09T14:09:35Z</time>
      </trkpt>
      <trkpt lat="45.1814" lon="4.66773">
        <ele>455</ele>
        <time>2007-04-09T14:09:43Z</time>
      </trkpt>
      <trkpt lat="45.18162" lon="4.66788">
        <ele>449</ele>
        <time>2007-04-09T14:09:55Z</time>
      </trkpt>
      <trkpt lat="45.18183" lon="4.66807">
        <ele>447</ele>
        <time>2007-04-09T14:10:01Z</time>
      </trkpt>
      <trkpt lat="45.18188" lon="4.66812">
        <ele>446</ele>
        <time>2007-04-09T14:10:02Z</time>
      </trkpt>
      <trkpt lat="45.18226" lon="4.66887">
        <ele>441</ele>
        <time>2007-04-09T14:10:11Z</time>
      </trkpt>
      <trkpt lat="45.18233" lon="4.66906">
        <ele>440</ele>
        <time>2007-04-09T14:10:13Z</time>
      </trkpt>
      <trkpt lat="45.18241" lon="4.66915">
        <ele>438</ele>
        <time>2007-04-09T14:10:17Z</time>
      </trkpt>
      <trkpt lat="45.1828" lon="4.66904">
        <ele>433</ele>
        <time>2007-04-09T14:10:26Z</time>
      </trkpt>
      <trkpt lat="45.18342" lon="4.66913">
        <ele>429</ele>
        <time>2007-04-09T14:10:36Z</time>
      </trkpt>
      <trkpt lat="45.18409" lon="4.66917">
        <ele>428</ele>
        <time>2007-04-09T14:10:47Z</time>
      </trkpt>
      <trkpt lat="45.18471" lon="4.66921">
        <ele>426</ele>
        <time>2007-04-09T14:10:58Z</time>
      </trkpt>
      <trkpt lat="45.18546" lon="4.66915">
        <ele>424</ele>
        <time>2007-04-09T14:11:12Z</time>
      </trkpt>
      <trkpt lat="45.1861" lon="4.66936">
        <ele>424</ele>
        <time>2007-04-09T14:11:26Z</time>
      </trkpt>
      <trkpt lat="45.18657" lon="4.66953">
        <ele>424</ele>
        <time>2007-04-09T14:11:36Z</time>
      </trkpt>
      <trkpt lat="45.1869" lon="4.66958">
        <ele>425</ele>
        <time>2007-04-09T14:11:43Z</time>
      </trkpt>
      <trkpt lat="45.18745" lon="4.66968">
        <ele>425</ele>
        <time>2007-04-09T14:11:55Z</time>
      </trkpt>
      <trkpt lat="45.1881" lon="4.66979">
        <ele>425</ele>
        <time>2007-04-09T14:12:09Z</time>
      </trkpt>
      <trkpt lat="45.18874" lon="4.66992">
        <ele>426</ele>
        <time>2007-04-09T14:12:24Z</time>
      </trkpt>
      <trkpt lat="45.18921" lon="4.67">
        <ele>426</ele>
        <time>2007-04-09T14:12:36Z</time>
      </trkpt>
      <trkpt lat="45.1896" lon="4.67009">
        <ele>426</ele>
        <time>2007-04-09T14:12:47Z</time>
      </trkpt>
      <trkpt lat="45.18962" lon="4.67052">
        <ele>425</ele>
        <time>2007-04-09T14:12:54Z</time>
      </trkpt>
      <trkpt lat="45.1896" lon="4.67146">
        <ele>424</ele>
        <time>2007-04-09T14:13:04Z</time>
      </trkpt>
      <trkpt lat="45.18971" lon="4.67254">
        <ele>421</ele>
        <time>2007-04-09T14:13:17Z</time>
      </trkpt>
      <trkpt lat="45.18979" lon="4.67378">
        <ele>421</ele>
        <time>2007-04-09T14:13:33Z</time>
      </trkpt>
      <trkpt lat="45.18977" lon="4.67412">
        <ele>421</ele>
        <time>2007-04-09T14:13:38Z</time>
      </trkpt>
      <trkpt lat="45.18964" lon="4.67503">
        <ele>422</ele>
        <time>2007-04-09T14:13:53Z</time>
      </trkpt>
      <trkpt lat="45.18958" lon="4.67578">
        <ele>424</ele>
        <time>2007-04-09T14:14:08Z</time>
      </trkpt>
      <trkpt lat="45.1896" lon="4.67623">
        <ele>426</ele>
        <time>2007-04-09T14:14:18Z</time>
      </trkpt>
      <trkpt lat="45.18973" lon="4.67618">
        <ele>425</ele>
        <time>2007-04-09T14:14:25Z</time>
      </trkpt>
      <trkpt lat="45.19003" lon="4.67616">
        <ele>425</ele>
        <time>2007-04-09T14:14:34Z</time>
      </trkpt>
      <trkpt lat="45.19018" lon="4.6761">
        <ele>425</ele>
        <time>2007-04-09T14:14:38Z</time>
      </trkpt>
      <trkpt lat="45.19059" lon="4.67571">
        <ele>424</ele>
        <time>2007-04-09T14:14:49Z</time>
      </trkpt>
      <trkpt lat="45.19084" lon="4.67533">
        <ele>423</ele>
        <time>2007-04-09T14:14:56Z</time>
      </trkpt>
      <trkpt lat="45.19095" lon="4.675">
        <ele>422</ele>
        <time>2007-04-09T14:15:01Z</time>
      </trkpt>
      <trkpt lat="45.19121" lon="4.67408">
        <ele>422</ele>
        <time>2007-04-09T14:15:16Z</time>
      </trkpt>
      <trkpt lat="45.19123" lon="4.67404">
        <ele>422</ele>
        <time>2007-04-09T14:15:17Z</time>
      </trkpt>
      <trkpt lat="45.19142" lon="4.67397">
        <ele>423</ele>
        <time>2007-04-09T14:15:23Z</time>
      </trkpt>
      <trkpt lat="45.19155" lon="4.67404">
        <ele>423</ele>
        <time>2007-04-09T14:15:26Z</time>
      </trkpt>
      <trkpt lat="45.19202" lon="4.67421">
        <ele>424</ele>
        <time>2007-04-09T14:15:39Z</time>
      </trkpt>
      <trkpt lat="45.19211" lon="4.67449">
        <ele>425</ele>
        <time>2007-04-09T14:15:46Z</time>
      </trkpt>
      <trkpt lat="45.19222" lon="4.6753">
        <ele>425</ele>
        <time>2007-04-09T14:16:01Z</time>
      </trkpt>
      <trkpt lat="45.1922" lon="4.67593">
        <ele>427</ele>
        <time>2007-04-09T14:16:12Z</time>
      </trkpt>
      <trkpt lat="45.19239" lon="4.67646">
        <ele>426</ele>
        <time>2007-04-09T14:16:23Z</time>
      </trkpt>
      <trkpt lat="45.1925" lon="4.67676">
        <ele>426</ele>
        <time>2007-04-09T14:16:27Z</time>
      </trkpt>
      <trkpt lat="45.19256" lon="4.67702">
        <ele>425</ele>
        <time>2007-04-09T14:16:30Z</time>
      </trkpt>
      <trkpt lat="45.19252" lon="4.67807">
        <ele>423</ele>
        <time>2007-04-09T14:16:42Z</time>
      </trkpt>
      <trkpt lat="45.1925" lon="4.67822">
        <ele>423</ele>
        <time>2007-04-09T14:16:44Z</time>
      </trkpt>
      <trkpt lat="45.1925" lon="4.67889">
        <ele>424</ele>
        <time>2007-04-09T14:16:56Z</time>
      </trkpt>
      <trkpt lat="45.19237" lon="4.67902">
        <ele>424</ele>
        <time>2007-04-09T14:17:01Z</time>
      </trkpt>
      <trkpt lat="45.19198" lon="4.67936">
        <ele>424</ele>
        <time>2007-04-09T14:17:13Z</time>
      </trkpt>
      <trkpt lat="45.19194" lon="4.6794">
        <ele>424</ele>
        <time>2007-04-09T14:17:14Z</time>
      </trkpt>
      <trkpt lat="45.19177" lon="4.67947">
        <ele>423</ele>
        <time>2007-04-09T14:17:18Z</time>
      </trkpt>
      <trkpt lat="45.19166" lon="4.67945">
        <ele>423</ele>
        <time>2007-04-09T14:17:20Z</time>
      </trkpt>
      <trkpt lat="45.19134" lon="4.67962">
        <ele>420</ele>
        <time>2007-04-09T14:17:30Z</time>
      </trkpt>
      <trkpt lat="45.19123" lon="4.67966">
        <ele>420</ele>
        <time>2007-04-09T14:17:32Z</time>
      </trkpt>
      <trkpt lat="45.19102" lon="4.67968">
        <ele>419</ele>
        <time>2007-04-09T14:17:36Z</time>
      </trkpt>
      <trkpt lat="45.19039" lon="4.67983">
        <ele>415</ele>
        <time>2007-04-09T14:17:45Z</time>
      </trkpt>
      <trkpt lat="45.18951" lon="4.68028">
        <ele>411</ele>
        <time>2007-04-09T14:17:58Z</time>
      </trkpt>
      <trkpt lat="45.18921" lon="4.68045">
        <ele>409</ele>
        <time>2007-04-09T14:18:03Z</time>
      </trkpt>
      <trkpt lat="45.18868" lon="4.68056">
        <ele>406</ele>
        <time>2007-04-09T14:18:14Z</time>
      </trkpt>
      <trkpt lat="45.18859" lon="4.68091">
        <ele>404</ele>
        <time>2007-04-09T14:18:22Z</time>
      </trkpt>
      <trkpt lat="45.18853" lon="4.68181">
        <ele>401</ele>
        <time>2007-04-09T14:18:34Z</time>
      </trkpt>
      <trkpt lat="45.18855" lon="4.68303">
        <ele>399</ele>
        <time>2007-04-09T14:18:52Z</time>
      </trkpt>
      <trkpt lat="45.18853" lon="4.6841">
        <ele>399</ele>
        <time>2007-04-09T14:19:08Z</time>
      </trkpt>
      <trkpt lat="45.18842" lon="4.68475">
        <ele>400</ele>
        <time>2007-04-09T14:19:20Z</time>
      </trkpt>
      <trkpt lat="45.18836" lon="4.68507">
        <ele>399</ele>
        <time>2007-04-09T14:19:27Z</time>
      </trkpt>
      <trkpt lat="45.18842" lon="4.68526">
        <ele>399</ele>
        <time>2007-04-09T14:19:31Z</time>
      </trkpt>
      <trkpt lat="45.18878" lon="4.6861">
        <ele>399</ele>
        <time>2007-04-09T14:19:47Z</time>
      </trkpt>
      <trkpt lat="45.18902" lon="4.68683">
        <ele>399</ele>
        <time>2007-04-09T14:20:01Z</time>
      </trkpt>
      <trkpt lat="45.18906" lon="4.687">
        <ele>399</ele>
        <time>2007-04-09T14:20:04Z</time>
      </trkpt>
      <trkpt lat="45.18928" lon="4.68717">
        <ele>399</ele>
        <time>2007-04-09T14:20:12Z</time>
      </trkpt>
      <trkpt lat="45.18936" lon="4.68726">
        <ele>399</ele>
        <time>2007-04-09T14:20:15Z</time>
      </trkpt>
      <trkpt lat="45.18947" lon="4.68756">
        <ele>398</ele>
        <time>2007-04-09T14:20:21Z</time>
      </trkpt>
      <trkpt lat="45.1893" lon="4.68779">
        <ele>399</ele>
        <time>2007-04-09T14:20:27Z</time>
      </trkpt>
      <trkpt lat="45.18906" lon="4.68796">
        <ele>398</ele>
        <time>2007-04-09T14:20:35Z</time>
      </trkpt>
      <trkpt lat="45.18904" lon="4.68801">
        <ele>399</ele>
        <time>2007-04-09T14:20:41Z</time>
      </trkpt>
      <trkpt lat="45.18898" lon="4.68827">
        <ele>399</ele>
        <time>2007-04-09T14:20:55Z</time>
      </trkpt>
      <trkpt lat="45.18896" lon="4.68833">
        <ele>399</ele>
        <time>2007-04-09T14:20:56Z</time>
      </trkpt>
      <trkpt lat="45.18911" lon="4.68895">
        <ele>396</ele>
        <time>2007-04-09T14:21:06Z</time>
      </trkpt>
      <trkpt lat="45.18926" lon="4.6894">
        <ele>395</ele>
        <time>2007-04-09T14:21:13Z</time>
      </trkpt>
      <trkpt lat="45.18941" lon="4.68955">
        <ele>394</ele>
        <time>2007-04-09T14:21:20Z</time>
      </trkpt>
      <trkpt lat="45.18947" lon="4.68951">
        <ele>395</ele>
        <time>2007-04-09T14:21:22Z</time>
      </trkpt>
      <trkpt lat="45.18999" lon="4.68882">
        <ele>396</ele>
        <time>2007-04-09T14:21:36Z</time>
      </trkpt>
      <trkpt lat="45.19046" lon="4.68799">
        <ele>393</ele>
        <time>2007-04-09T14:21:51Z</time>
      </trkpt>
      <trkpt lat="45.19063" lon="4.68766">
        <ele>392</ele>
        <time>2007-04-09T14:21:57Z</time>
      </trkpt>
      <trkpt lat="45.19072" lon="4.68711">
        <ele>391</ele>
        <time>2007-04-09T14:22:07Z</time>
      </trkpt>
      <trkpt lat="45.19074" lon="4.68698">
        <ele>391</ele>
        <time>2007-04-09T14:22:10Z</time>
      </trkpt>
      <trkpt lat="45.19089" lon="4.68696">
        <ele>391</ele>
        <time>2007-04-09T14:22:15Z</time>
      </trkpt>
      <trkpt lat="45.19121" lon="4.68711">
        <ele>389</ele>
        <time>2007-04-09T14:22:22Z</time>
      </trkpt>
      <trkpt lat="45.19132" lon="4.68713">
        <ele>389</ele>
        <time>2007-04-09T14:22:24Z</time>
      </trkpt>
      <trkpt lat="45.19151" lon="4.68698">
        <ele>390</ele>
        <time>2007-04-09T14:22:27Z</time>
      </trkpt>
      <trkpt lat="45.19162" lon="4.687">
        <ele>393</ele>
        <time>2007-04-09T14:22:29Z</time>
      </trkpt>
      <trkpt lat="45.19179" lon="4.687">
        <ele>396</ele>
        <time>2007-04-09T14:22:32Z</time>
      </trkpt>
      <trkpt lat="45.19273" lon="4.68734">
        <ele>392</ele>
        <time>2007-04-09T14:22:49Z</time>
      </trkpt>
      <trkpt lat="45.19363" lon="4.68769">
        <ele>391</ele>
        <time>2007-04-09T14:23:06Z</time>
      </trkpt>
      <trkpt lat="45.19381" lon="4.68775">
        <ele>391</ele>
        <time>2007-04-09T14:23:10Z</time>
      </trkpt>
      <trkpt lat="45.19451" lon="4.68769">
        <ele>391</ele>
        <time>2007-04-09T14:23:25Z</time>
      </trkpt>
      <trkpt lat="45.19505" lon="4.68773">
        <ele>392</ele>
        <time>2007-04-09T14:23:38Z</time>
      </trkpt>
      <trkpt lat="45.19516" lon="4.68788">
        <ele>391</ele>
        <time>2007-04-09T14:23:42Z</time>
      </trkpt>
      <trkpt lat="45.19526" lon="4.68805">
        <ele>392</ele>
        <time>2007-04-09T14:23:46Z</time>
      </trkpt>
      <trkpt lat="45.19574" lon="4.68827">
        <ele>393</ele>
        <time>2007-04-09T14:23:59Z</time>
      </trkpt>
      <trkpt lat="45.19636" lon="4.68848">
        <ele>394</ele>
        <time>2007-04-09T14:24:16Z</time>
      </trkpt>
      <trkpt lat="45.19692" lon="4.68872">
        <ele>394</ele>
        <time>2007-04-09T14:24:31Z</time>
      </trkpt>
      <trkpt lat="45.1975" lon="4.68887">
        <ele>393</ele>
        <time>2007-04-09T14:24:46Z</time>
      </trkpt>
      <trkpt lat="45.19799" lon="4.68893">
        <ele>394</ele>
        <time>2007-04-09T14:24:59Z</time>
      </trkpt>
      <trkpt lat="45.19857" lon="4.68904">
        <ele>395</ele>
        <time>2007-04-09T14:25:14Z</time>
      </trkpt>
      <trkpt lat="45.19896" lon="4.68912">
        <ele>395</ele>
        <time>2007-04-09T14:25:26Z</time>
      </trkpt>
      <trkpt lat="45.19904" lon="4.6891">
        <ele>396</ele>
        <time>2007-04-09T14:25:33Z</time>
      </trkpt>
      <trkpt lat="45.19906" lon="4.6891">
        <ele>397</ele>
        <time>2007-04-09T14:25:42Z</time>
      </trkpt>
      <trkpt lat="45.19908" lon="4.68908">
        <ele>398</ele>
        <time>2007-04-09T14:26:00Z</time>
      </trkpt>
      <trkpt lat="45.19921" lon="4.68904">
        <ele>398</ele>
        <time>2007-04-09T14:26:25Z</time>
      </trkpt>
      <trkpt lat="45.1996" lon="4.68899">
        <ele>398</ele>
        <time>2007-04-09T14:26:33Z</time>
      </trkpt>
      <trkpt lat="45.20031" lon="4.68897">
        <ele>397</ele>
        <time>2007-04-09T14:26:48Z</time>
      </trkpt>
      <trkpt lat="45.20074" lon="4.68899">
        <ele>397</ele>
        <time>2007-04-09T14:26:57Z</time>
      </trkpt>
      <trkpt lat="45.20091" lon="4.68906">
        <ele>397</ele>
        <time>2007-04-09T14:27:01Z</time>
      </trkpt>
      <trkpt lat="45.20159" lon="4.68968">
        <ele>396</ele>
        <time>2007-04-09T14:27:19Z</time>
      </trkpt>
      <trkpt lat="45.20175" lon="4.68985">
        <ele>396</ele>
        <time>2007-04-09T14:27:23Z</time>
      </trkpt>
      <trkpt lat="45.20183" lon="4.68998">
        <ele>396</ele>
        <time>2007-04-09T14:27:25Z</time>
      </trkpt>
      <trkpt lat="45.20202" lon="4.69024">
        <ele>396</ele>
        <time>2007-04-09T14:27:29Z</time>
      </trkpt>
      <trkpt lat="45.20267" lon="4.69007">
        <ele>395</ele>
        <time>2007-04-09T14:27:38Z</time>
      </trkpt>
      <trkpt lat="45.20293" lon="4.68985">
        <ele>392</ele>
        <time>2007-04-09T14:27:43Z</time>
      </trkpt>
      <trkpt lat="45.2037" lon="4.68915">
        <ele>389</ele>
        <time>2007-04-09T14:27:59Z</time>
      </trkpt>
      <trkpt lat="45.20434" lon="4.68869">
        <ele>389</ele>
        <time>2007-04-09T14:28:14Z</time>
      </trkpt>
      <trkpt lat="45.20473" lon="4.68835">
        <ele>388</ele>
        <time>2007-04-09T14:28:27Z</time>
      </trkpt>
      <trkpt lat="45.20481" lon="4.68831">
        <ele>388</ele>
        <time>2007-04-09T14:28:29Z</time>
      </trkpt>
      <trkpt lat="45.20509" lon="4.68818">
        <ele>388</ele>
        <time>2007-04-09T14:28:34Z</time>
      </trkpt>
      <trkpt lat="45.20518" lon="4.68794">
        <ele>388</ele>
        <time>2007-04-09T14:28:37Z</time>
      </trkpt>
      <trkpt lat="45.20546" lon="4.68803">
        <ele>386</ele>
        <time>2007-04-09T14:28:44Z</time>
      </trkpt>
      <trkpt lat="45.20548" lon="4.68833">
        <ele>385</ele>
        <time>2007-04-09T14:28:49Z</time>
      </trkpt>
      <trkpt lat="45.20552" lon="4.68863">
        <ele>383</ele>
        <time>2007-04-09T14:28:54Z</time>
      </trkpt>
      <trkpt lat="45.20556" lon="4.68981">
        <ele>377</ele>
        <time>2007-04-09T14:29:09Z</time>
      </trkpt>
      <trkpt lat="45.20559" lon="4.69009">
        <ele>376</ele>
        <time>2007-04-09T14:29:12Z</time>
      </trkpt>
      <trkpt lat="45.2058" lon="4.69071">
        <ele>373</ele>
        <time>2007-04-09T14:29:19Z</time>
      </trkpt>
      <trkpt lat="45.20608" lon="4.69121">
        <ele>369</ele>
        <time>2007-04-09T14:29:25Z</time>
      </trkpt>
      <trkpt lat="45.20606" lon="4.69129">
        <ele>369</ele>
        <time>2007-04-09T14:29:26Z</time>
      </trkpt>
      <trkpt lat="45.20591" lon="4.69196">
        <ele>368</ele>
        <time>2007-04-09T14:29:33Z</time>
      </trkpt>
      <trkpt lat="45.20589" lon="4.69213">
        <ele>368</ele>
        <time>2007-04-09T14:29:35Z</time>
      </trkpt>
      <trkpt lat="45.20604" lon="4.69254">
        <ele>368</ele>
        <time>2007-04-09T14:29:41Z</time>
      </trkpt>
      <trkpt lat="45.20629" lon="4.6929">
        <ele>368</ele>
        <time>2007-04-09T14:29:48Z</time>
      </trkpt>
      <trkpt lat="45.20636" lon="4.69301">
        <ele>367</ele>
        <time>2007-04-09T14:29:50Z</time>
      </trkpt>
      <trkpt lat="45.20642" lon="4.69327">
        <ele>367</ele>
        <time>2007-04-09T14:29:54Z</time>
      </trkpt>
      <trkpt lat="45.20649" lon="4.69387">
        <ele>368</ele>
        <time>2007-04-09T14:30:03Z</time>
      </trkpt>
      <trkpt lat="45.20657" lon="4.69502">
        <ele>366</ele>
        <time>2007-04-09T14:30:21Z</time>
      </trkpt>
      <trkpt lat="45.20664" lon="4.69554">
        <ele>365</ele>
        <time>2007-04-09T14:30:28Z</time>
      </trkpt>
      <trkpt lat="45.20679" lon="4.69616">
        <ele>362</ele>
        <time>2007-04-09T14:30:36Z</time>
      </trkpt>
      <trkpt lat="45.20677" lon="4.69663">
        <ele>360</ele>
        <time>2007-04-09T14:30:41Z</time>
      </trkpt>
      <trkpt lat="45.2067" lon="4.69719">
        <ele>359</ele>
        <time>2007-04-09T14:30:47Z</time>
      </trkpt>
      <trkpt lat="45.20644" lon="4.69811">
        <ele>358</ele>
        <time>2007-04-09T14:30:58Z</time>
      </trkpt>
      <trkpt lat="45.20625" lon="4.6991">
        <ele>358</ele>
        <time>2007-04-09T14:31:10Z</time>
      </trkpt>
      <trkpt lat="45.20617" lon="4.69934">
        <ele>357</ele>
        <time>2007-04-09T14:31:13Z</time>
      </trkpt>
      <trkpt lat="45.2061" lon="4.70013">
        <ele>357</ele>
        <time>2007-04-09T14:31:22Z</time>
      </trkpt>
      <trkpt lat="45.20608" lon="4.70082">
        <ele>357</ele>
        <time>2007-04-09T14:31:33Z</time>
      </trkpt>
      <trkpt lat="45.20604" lon="4.70129">
        <ele>359</ele>
        <time>2007-04-09T14:31:44Z</time>
      </trkpt>
      <trkpt lat="45.20608" lon="4.70193">
        <ele>360</ele>
        <time>2007-04-09T14:31:58Z</time>
      </trkpt>
      <trkpt lat="45.20608" lon="4.70249">
        <ele>361</ele>
        <time>2007-04-09T14:32:11Z</time>
      </trkpt>
      <trkpt lat="45.20612" lon="4.70292">
        <ele>357</ele>
        <time>2007-04-09T14:32:17Z</time>
      </trkpt>
      <trkpt lat="45.2061" lon="4.7032">
        <ele>354</ele>
        <time>2007-04-09T14:32:21Z</time>
      </trkpt>
      <trkpt lat="45.20604" lon="4.70335">
        <ele>355</ele>
        <time>2007-04-09T14:32:29Z</time>
      </trkpt>
      <trkpt lat="45.20599" lon="4.70333">
        <ele>355</ele>
        <time>2007-04-09T14:32:33Z</time>
      </trkpt>
      <trkpt lat="45.20591" lon="4.70333">
        <ele>356</ele>
        <time>2007-04-09T14:32:38Z</time>
      </trkpt>
      <trkpt lat="45.20554" lon="4.70333">
        <ele>356</ele>
        <time>2007-04-09T14:32:49Z</time>
      </trkpt>
      <trkpt lat="45.20486" lon="4.70337">
        <ele>359</ele>
        <time>2007-04-09T14:33:08Z</time>
      </trkpt>
      <trkpt lat="45.20458" lon="4.70341">
        <ele>358</ele>
        <time>2007-04-09T14:33:16Z</time>
      </trkpt>
      <trkpt lat="45.20432" lon="4.70318">
        <ele>355</ele>
        <time>2007-04-09T14:33:22Z</time>
      </trkpt>
      <trkpt lat="45.20428" lon="4.70299">
        <ele>353</ele>
        <time>2007-04-09T14:33:24Z</time>
      </trkpt>
      <trkpt lat="45.20423" lon="4.70262">
        <ele>352</ele>
        <time>2007-04-09T14:33:27Z</time>
      </trkpt>
      <trkpt lat="45.204" lon="4.70256">
        <ele>350</ele>
        <time>2007-04-09T14:33:31Z</time>
      </trkpt>
      <trkpt lat="45.20398" lon="4.70262">
        <ele>350</ele>
        <time>2007-04-09T14:33:32Z</time>
      </trkpt>
      <trkpt lat="45.20374" lon="4.70299">
        <ele>348</ele>
        <time>2007-04-09T14:33:38Z</time>
      </trkpt>
      <trkpt lat="45.20365" lon="4.7029">
        <ele>349</ele>
        <time>2007-04-09T14:33:41Z</time>
      </trkpt>
      <trkpt lat="45.2034" lon="4.70253">
        <ele>351</ele>
        <time>2007-04-09T14:33:55Z</time>
      </trkpt>
      <trkpt lat="45.2031" lon="4.70234">
        <ele>352</ele>
        <time>2007-04-09T14:34:07Z</time>
      </trkpt>
      <trkpt lat="45.20267" lon="4.70223">
        <ele>355</ele>
        <time>2007-04-09T14:34:23Z</time>
      </trkpt>
      <trkpt lat="45.20222" lon="4.70213">
        <ele>358</ele>
        <time>2007-04-09T14:34:41Z</time>
      </trkpt>
      <trkpt lat="45.20185" lon="4.70213">
        <ele>362</ele>
        <time>2007-04-09T14:34:57Z</time>
      </trkpt>
      <trkpt lat="45.20155" lon="4.70206">
        <ele>363</ele>
        <time>2007-04-09T14:35:10Z</time>
      </trkpt>
      <trkpt lat="45.2011" lon="4.70202">
        <ele>363</ele>
        <time>2007-04-09T14:35:25Z</time>
      </trkpt>
      <trkpt lat="45.20106" lon="4.70204">
        <ele>363</ele>
        <time>2007-04-09T14:35:26Z</time>
      </trkpt>
      <trkpt lat="45.20089" lon="4.70223">
        <ele>361</ele>
        <time>2007-04-09T14:35:31Z</time>
      </trkpt>
      <trkpt lat="45.20048" lon="4.70268">
        <ele>363</ele>
        <time>2007-04-09T14:35:45Z</time>
      </trkpt>
      <trkpt lat="45.20016" lon="4.70303">
        <ele>366</ele>
        <time>2007-04-09T14:36:01Z</time>
      </trkpt>
      <trkpt lat="45.20022" lon="4.70331">
        <ele>366</ele>
        <time>2007-04-09T14:36:09Z</time>
      </trkpt>
      <trkpt lat="45.20031" lon="4.70393">
        <ele>367</ele>
        <time>2007-04-09T14:36:23Z</time>
      </trkpt>
      <trkpt lat="45.20029" lon="4.70457">
        <ele>369</ele>
        <time>2007-04-09T14:36:37Z</time>
      </trkpt>
      <trkpt lat="45.20018" lon="4.7052">
        <ele>370</ele>
        <time>2007-04-09T14:36:52Z</time>
      </trkpt>
      <trkpt lat="45.19999" lon="4.70573">
        <ele>370</ele>
        <time>2007-04-09T14:37:05Z</time>
      </trkpt>
      <trkpt lat="45.19992" lon="4.7064">
        <ele>371</ele>
        <time>2007-04-09T14:37:19Z</time>
      </trkpt>
      <trkpt lat="45.19992" lon="4.70648">
        <ele>372</ele>
        <time>2007-04-09T14:37:21Z</time>
      </trkpt>
      <trkpt lat="45.20001" lon="4.70687">
        <ele>374</ele>
        <time>2007-04-09T14:37:31Z</time>
      </trkpt>
      <trkpt lat="45.20011" lon="4.70734">
        <ele>372</ele>
        <time>2007-04-09T14:37:41Z</time>
      </trkpt>
      <trkpt lat="45.20011" lon="4.70758">
        <ele>371</ele>
        <time>2007-04-09T14:37:44Z</time>
      </trkpt>
      <trkpt lat="45.19994" lon="4.70779">
        <ele>369</ele>
        <time>2007-04-09T14:37:50Z</time>
      </trkpt>
      <trkpt lat="45.1999" lon="4.70781">
        <ele>369</ele>
        <time>2007-04-09T14:37:51Z</time>
      </trkpt>
      <trkpt lat="45.1993" lon="4.70796">
        <ele>366</ele>
        <time>2007-04-09T14:38:04Z</time>
      </trkpt>
      <trkpt lat="45.19887" lon="4.70829">
        <ele>362</ele>
        <time>2007-04-09T14:38:13Z</time>
      </trkpt>
      <trkpt lat="45.19838" lon="4.70876">
        <ele>359</ele>
        <time>2007-04-09T14:38:21Z</time>
      </trkpt>
      <trkpt lat="45.19805" lon="4.70947">
        <ele>358</ele>
        <time>2007-04-09T14:38:30Z</time>
      </trkpt>
      <trkpt lat="45.19812" lon="4.70983">
        <ele>357</ele>
        <time>2007-04-09T14:38:36Z</time>
      </trkpt>
      <trkpt lat="45.19814" lon="4.71002">
        <ele>357</ele>
        <time>2007-04-09T14:38:39Z</time>
      </trkpt>
      <trkpt lat="45.19818" lon="4.71114">
        <ele>356</ele>
        <time>2007-04-09T14:38:55Z</time>
      </trkpt>
      <trkpt lat="45.19825" lon="4.71174">
        <ele>357</ele>
        <time>2007-04-09T14:39:07Z</time>
      </trkpt>
      <trkpt lat="45.19827" lon="4.71178">
        <ele>356</ele>
        <time>2007-04-09T14:39:18Z</time>
      </trkpt>
      <trkpt lat="45.19827" lon="4.71176">
        <ele>356</ele>
        <time>2007-04-09T14:39:32Z</time>
      </trkpt>
      <trkpt lat="45.19827" lon="4.71178">
        <ele>355</ele>
        <time>2007-04-09T14:39:43Z</time>
      </trkpt>
      <trkpt lat="45.19827" lon="4.71178">
        <ele>356</ele>
        <time>2007-04-09T14:40:06Z</time>
      </trkpt>
      <trkpt lat="45.19827" lon="4.7118">
        <ele>355</ele>
        <time>2007-04-09T14:41:22Z</time>
      </trkpt>
      <trkpt lat="45.19827" lon="4.7118">
        <ele>355</ele>
        <time>2007-04-09T14:41:53Z</time>
      </trkpt>
      <trkpt lat="45.19833" lon="4.71202">
        <ele>355</ele>
        <time>2007-04-09T14:42:03Z</time>
      </trkpt>
      <trkpt lat="45.19853" lon="4.71268">
        <ele>356</ele>
        <time>2007-04-09T14:42:16Z</time>
      </trkpt>
      <trkpt lat="45.19881" lon="4.7135">
        <ele>354</ele>
        <time>2007-04-09T14:42:30Z</time>
      </trkpt>
      <trkpt lat="45.19915" lon="4.71425">
        <ele>353</ele>
        <time>2007-04-09T14:42:43Z</time>
      </trkpt>
      <trkpt lat="45.19951" lon="4.71511">
        <ele>351</ele>
        <time>2007-04-09T14:42:55Z</time>
      </trkpt>
      <trkpt lat="45.19986" lon="4.7159">
        <ele>351</ele>
        <time>2007-04-09T14:43:08Z</time>
      </trkpt>
      <trkpt lat="45.1999" lon="4.71601">
        <ele>351</ele>
        <time>2007-04-09T14:43:10Z</time>
      </trkpt>
      <trkpt lat="45.20001" lon="4.71659">
        <ele>353</ele>
        <time>2007-04-09T14:43:20Z</time>
      </trkpt>
      <trkpt lat="45.20009" lon="4.71719">
        <ele>355</ele>
        <time>2007-04-09T14:43:33Z</time>
      </trkpt>
      <trkpt lat="45.20031" lon="4.71792">
        <ele>355</ele>
        <time>2007-04-09T14:43:47Z</time>
      </trkpt>
      <trkpt lat="45.20039" lon="4.71884">
        <ele>357</ele>
        <time>2007-04-09T14:44:03Z</time>
      </trkpt>
      <trkpt lat="45.20046" lon="4.7194">
        <ele>357</ele>
        <time>2007-04-09T14:44:13Z</time>
      </trkpt>
      <trkpt lat="45.20061" lon="4.72011">
        <ele>355</ele>
        <time>2007-04-09T14:44:23Z</time>
      </trkpt>
      <trkpt lat="45.20093" lon="4.72099">
        <ele>353</ele>
        <time>2007-04-09T14:44:34Z</time>
      </trkpt>
      <trkpt lat="45.20119" lon="4.72135">
        <ele>353</ele>
        <time>2007-04-09T14:44:39Z</time>
      </trkpt>
      <trkpt lat="45.20142" lon="4.7217">
        <ele>352</ele>
        <time>2007-04-09T14:44:43Z</time>
      </trkpt>
      <trkpt lat="45.20153" lon="4.72202">
        <ele>351</ele>
        <time>2007-04-09T14:44:46Z</time>
      </trkpt>
      <trkpt lat="45.20153" lon="4.72249">
        <ele>349</ele>
        <time>2007-04-09T14:44:50Z</time>
      </trkpt>
      <trkpt lat="45.20134" lon="4.72275">
        <ele>347</ele>
        <time>2007-04-09T14:44:54Z</time>
      </trkpt>
      <trkpt lat="45.20121" lon="4.72268">
        <ele>346</ele>
        <time>2007-04-09T14:44:56Z</time>
      </trkpt>
      <trkpt lat="45.20099" lon="4.72262">
        <ele>344</ele>
        <time>2007-04-09T14:44:59Z</time>
      </trkpt>
      <trkpt lat="45.20074" lon="4.72268">
        <ele>342</ele>
        <time>2007-04-09T14:45:03Z</time>
      </trkpt>
      <trkpt lat="45.20074" lon="4.7232">
        <ele>339</ele>
        <time>2007-04-09T14:45:10Z</time>
      </trkpt>
      <trkpt lat="45.20082" lon="4.72333">
        <ele>339</ele>
        <time>2007-04-09T14:45:12Z</time>
      </trkpt>
      <trkpt lat="45.20102" lon="4.72361">
        <ele>338</ele>
        <time>2007-04-09T14:45:16Z</time>
      </trkpt>
      <trkpt lat="45.20159" lon="4.72427">
        <ele>335</ele>
        <time>2007-04-09T14:45:26Z</time>
      </trkpt>
      <trkpt lat="45.20194" lon="4.72451">
        <ele>333</ele>
        <time>2007-04-09T14:45:31Z</time>
      </trkpt>
      <trkpt lat="45.202" lon="4.72466">
        <ele>333</ele>
        <time>2007-04-09T14:45:33Z</time>
      </trkpt>
      <trkpt lat="45.202" lon="4.72485">
        <ele>332</ele>
        <time>2007-04-09T14:45:35Z</time>
      </trkpt>
      <trkpt lat="45.202" lon="4.72515">
        <ele>329</ele>
        <time>2007-04-09T14:45:38Z</time>
      </trkpt>
      <trkpt lat="45.20194" lon="4.72532">
        <ele>326</ele>
        <time>2007-04-09T14:45:44Z</time>
      </trkpt>
      <trkpt lat="45.20192" lon="4.72532">
        <ele>316</ele>
        <time>2007-04-09T14:46:07Z</time>
      </trkpt>
      <trkpt lat="45.20192" lon="4.72532">
        <ele>314</ele>
        <time>2007-04-09T14:46:14Z</time>
      </trkpt>
      <trkpt lat="45.20192" lon="4.72534">
        <ele>311</ele>
        <time>2007-04-09T14:46:26Z</time>
      </trkpt>
      <trkpt lat="45.20192" lon="4.72532">
        <ele>309</ele>
        <time>2007-04-09T14:47:37Z</time>
      </trkpt>
      <trkpt lat="45.20192" lon="4.72532">
        <ele>309</ele>
        <time>2007-04-09T14:47:39Z</time>
      </trkpt>
      <trkpt lat="45.20177" lon="4.72541">
        <ele>308</ele>
        <time>2007-04-09T14:47:45Z</time>
      </trkpt>
      <trkpt lat="45.20181" lon="4.72592">
        <ele>307</ele>
        <time>2007-04-09T14:47:50Z</time>
      </trkpt>
      <trkpt lat="45.20181" lon="4.72603">
        <ele>306</ele>
        <time>2007-04-09T14:47:51Z</time>
      </trkpt>
      <trkpt lat="45.20175" lon="4.72637">
        <ele>304</ele>
        <time>2007-04-09T14:47:55Z</time>
      </trkpt>
      <trkpt lat="45.20157" lon="4.72667">
        <ele>300</ele>
        <time>2007-04-09T14:47:59Z</time>
      </trkpt>
      <trkpt lat="45.20121" lon="4.72702">
        <ele>295</ele>
        <time>2007-04-09T14:48:04Z</time>
      </trkpt>
      <trkpt lat="45.20104" lon="4.7271">
        <ele>292</ele>
        <time>2007-04-09T14:48:08Z</time>
      </trkpt>
      <trkpt lat="45.20097" lon="4.72719">
        <ele>291</ele>
        <time>2007-04-09T14:48:10Z</time>
      </trkpt>
      <trkpt lat="45.20089" lon="4.72719">
        <ele>290</ele>
        <time>2007-04-09T14:48:12Z</time>
      </trkpt>
      <trkpt lat="45.20061" lon="4.72719">
        <ele>286</ele>
        <time>2007-04-09T14:48:16Z</time>
      </trkpt>
      <trkpt lat="45.2002" lon="4.72715">
        <ele>282</ele>
        <time>2007-04-09T14:48:23Z</time>
      </trkpt>
      <trkpt lat="45.19999" lon="4.7271">
        <ele>278</ele>
        <time>2007-04-09T14:48:31Z</time>
      </trkpt>
      <trkpt lat="45.19975" lon="4.72713">
        <ele>276</ele>
        <time>2007-04-09T14:48:35Z</time>
      </trkpt>
      <trkpt lat="45.19962" lon="4.7274">
        <ele>273</ele>
        <time>2007-04-09T14:48:40Z</time>
      </trkpt>
      <trkpt lat="45.19975" lon="4.72835">
        <ele>273</ele>
        <time>2007-04-09T14:48:51Z</time>
      </trkpt>
      <trkpt lat="45.19984" lon="4.72848">
        <ele>270</ele>
        <time>2007-04-09T14:49:01Z</time>
      </trkpt>
      <trkpt lat="45.19999" lon="4.72856">
        <ele>259</ele>
        <time>2007-04-09T14:49:31Z</time>
      </trkpt>
      <trkpt lat="45.19999" lon="4.72861">
        <ele>260</ele>
        <time>2007-04-09T14:49:46Z</time>
      </trkpt>
      <trkpt lat="45.20007" lon="4.7285">
        <ele>279</ele>
        <time>2007-04-09T14:50:51Z</time>
      </trkpt>
      <trkpt lat="45.19975" lon="4.72848">
        <ele>279</ele>
        <time>2007-04-09T14:51:10Z</time>
      </trkpt>
      <trkpt lat="45.19969" lon="4.72843">
        <ele>276</ele>
        <time>2007-04-09T14:51:30Z</time>
      </trkpt>
      <trkpt lat="45.19949" lon="4.72854">
        <ele>275</ele>
        <time>2007-04-09T14:52:17Z</time>
      </trkpt>
      <trkpt lat="45.19945" lon="4.7288">
        <ele>273</ele>
        <time>2007-04-09T14:53:09Z</time>
      </trkpt>
      <trkpt lat="45.19947" lon="4.72891">
        <ele>274</ele>
        <time>2007-04-09T14:53:16Z</time>
      </trkpt>
      <trkpt lat="45.19958" lon="4.72908">
        <ele>276</ele>
        <time>2007-04-09T14:53:29Z</time>
      </trkpt>
      <trkpt lat="45.19969" lon="4.72929">
        <ele>277</ele>
        <time>2007-04-09T14:53:43Z</time>
      </trkpt>
      <trkpt lat="45.19977" lon="4.72942">
        <ele>279</ele>
        <time>2007-04-09T14:53:54Z</time>
      </trkpt>
      <trkpt lat="45.19977" lon="4.72946">
        <ele>280</ele>
        <time>2007-04-09T14:53:56Z</time>
      </trkpt>
      <trkpt lat="45.19962" lon="4.72944">
        <ele>284</ele>
        <time>2007-04-09T14:54:07Z</time>
      </trkpt>
      <trkpt lat="45.19953" lon="4.7294">
        <ele>289</ele>
        <time>2007-04-09T14:54:19Z</time>
      </trkpt>
      <trkpt lat="45.19949" lon="4.7294">
        <ele>292</ele>
        <time>2007-04-09T14:54:31Z</time>
      </trkpt>
      <trkpt lat="45.19951" lon="4.72946">
        <ele>292</ele>
        <time>2007-04-09T14:56:56Z</time>
      </trkpt>
      <trkpt lat="45.19958" lon="4.72951">
        <ele>294</ele>
        <time>2007-04-09T14:57:53Z</time>
      </trkpt>
      <trkpt lat="45.19964" lon="4.72976">
        <ele>294</ele>
        <time>2007-04-09T14:57:58Z</time>
      </trkpt>
      <trkpt lat="45.19966" lon="4.73032">
        <ele>293</ele>
        <time>2007-04-09T14:58:05Z</time>
      </trkpt>
      <trkpt lat="45.19996" lon="4.73103">
        <ele>293</ele>
        <time>2007-04-09T14:58:12Z</time>
      </trkpt>
      <trkpt lat="45.20011" lon="4.73142">
        <ele>290</ele>
        <time>2007-04-09T14:58:18Z</time>
      </trkpt>
      <trkpt lat="45.20016" lon="4.73146">
        <ele>289</ele>
        <time>2007-04-09T14:58:20Z</time>
      </trkpt>
      <trkpt lat="45.20033" lon="4.73163">
        <ele>284</ele>
        <time>2007-04-09T14:58:27Z</time>
      </trkpt>
      <trkpt lat="45.20052" lon="4.73172">
        <ele>280</ele>
        <time>2007-04-09T14:58:33Z</time>
      </trkpt>
      <trkpt lat="45.20061" lon="4.73176">
        <ele>279</ele>
        <time>2007-04-09T14:58:35Z</time>
      </trkpt>
      <trkpt lat="45.20072" lon="4.732">
        <ele>277</ele>
        <time>2007-04-09T14:58:39Z</time>
      </trkpt>
      <trkpt lat="45.20067" lon="4.73225">
        <ele>274</ele>
        <time>2007-04-09T14:58:43Z</time>
      </trkpt>
      <trkpt lat="45.20044" lon="4.73238">
        <ele>271</ele>
        <time>2007-04-09T14:58:50Z</time>
      </trkpt>
      <trkpt lat="45.20044" lon="4.73238">
        <ele>271</ele>
        <time>2007-04-09T14:58:54Z</time>
      </trkpt>
      <trkpt lat="45.20044" lon="4.7324">
        <ele>262</ele>
        <time>2007-04-09T14:59:09Z</time>
      </trkpt>
      <trkpt lat="45.20037" lon="4.73245">
        <ele>255</ele>
        <time>2007-04-09T14:59:25Z</time>
      </trkpt>
      <trkpt lat="45.20022" lon="4.73245">
        <ele>252</ele>
        <time>2007-04-09T14:59:31Z</time>
      </trkpt>
      <trkpt lat="45.19994" lon="4.73219">
        <ele>251</ele>
        <time>2007-04-09T14:59:45Z</time>
      </trkpt>
      <trkpt lat="45.19977" lon="4.73202">
        <ele>252</ele>
        <time>2007-04-09T14:59:59Z</time>
      </trkpt>
      <trkpt lat="45.19949" lon="4.73202">
        <ele>249</ele>
        <time>2007-04-09T15:00:13Z</time>
      </trkpt>
      <trkpt lat="45.19936" lon="4.73202">
        <ele>249</ele>
        <time>2007-04-09T15:00:21Z</time>
      </trkpt>
      <trkpt lat="45.19919" lon="4.73191">
        <ele>250</ele>
        <time>2007-04-09T15:00:35Z</time>
      </trkpt>
      <trkpt lat="45.199" lon="4.73172">
        <ele>252</ele>
        <time>2007-04-09T15:00:50Z</time>
      </trkpt>
      <trkpt lat="45.19883" lon="4.73148">
        <ele>255</ele>
        <time>2007-04-09T15:01:04Z</time>
      </trkpt>
      <trkpt lat="45.19868" lon="4.73131">
        <ele>256</ele>
        <time>2007-04-09T15:01:19Z</time>
      </trkpt>
      <trkpt lat="45.19853" lon="4.73118">
        <ele>257</ele>
        <time>2007-04-09T15:01:31Z</time>
      </trkpt>
      <trkpt lat="45.19838" lon="4.73101">
        <ele>259</ele>
        <time>2007-04-09T15:01:45Z</time>
      </trkpt>
      <trkpt lat="45.19823" lon="4.73082">
        <ele>260</ele>
        <time>2007-04-09T15:01:59Z</time>
      </trkpt>
      <trkpt lat="45.1981" lon="4.7306">
        <ele>263</ele>
        <time>2007-04-09T15:02:13Z</time>
      </trkpt>
      <trkpt lat="45.19799" lon="4.73054">
        <ele>265</ele>
        <time>2007-04-09T15:02:25Z</time>
      </trkpt>
      <trkpt lat="45.19797" lon="4.73054">
        <ele>266</ele>
        <time>2007-04-09T15:02:27Z</time>
      </trkpt>
      <trkpt lat="45.19773" lon="4.73058">
        <ele>268</ele>
        <time>2007-04-09T15:02:43Z</time>
      </trkpt>
      <trkpt lat="45.19758" lon="4.73049">
        <ele>269</ele>
        <time>2007-04-09T15:02:52Z</time>
      </trkpt>
      <trkpt lat="45.19739" lon="4.73019">
        <ele>271</ele>
        <time>2007-04-09T15:03:11Z</time>
      </trkpt>
      <trkpt lat="45.19728" lon="4.72989">
        <ele>274</ele>
        <time>2007-04-09T15:03:29Z</time>
      </trkpt>
      <trkpt lat="45.19711" lon="4.72976">
        <ele>278</ele>
        <time>2007-04-09T15:03:43Z</time>
      </trkpt>
      <trkpt lat="45.19694" lon="4.72959">
        <ele>280</ele>
        <time>2007-04-09T15:03:59Z</time>
      </trkpt>
      <trkpt lat="45.1969" lon="4.72955">
        <ele>279</ele>
        <time>2007-04-09T15:04:10Z</time>
      </trkpt>
      <trkpt lat="45.19679" lon="4.72953">
        <ele>281</ele>
        <time>2007-04-09T15:04:33Z</time>
      </trkpt>
      <trkpt lat="45.19653" lon="4.72938">
        <ele>280</ele>
        <time>2007-04-09T15:04:50Z</time>
      </trkpt>
      <trkpt lat="45.19642" lon="4.72914">
        <ele>284</ele>
        <time>2007-04-09T15:05:04Z</time>
      </trkpt>
      <trkpt lat="45.19632" lon="4.72888">
        <ele>285</ele>
        <time>2007-04-09T15:05:20Z</time>
      </trkpt>
      <trkpt lat="45.19614" lon="4.72867">
        <ele>288</ele>
        <time>2007-04-09T15:05:36Z</time>
      </trkpt>
      <trkpt lat="45.19591" lon="4.72858">
        <ele>289</ele>
        <time>2007-04-09T15:05:53Z</time>
      </trkpt>
      <trkpt lat="45.19572" lon="4.72854">
        <ele>291</ele>
        <time>2007-04-09T15:06:07Z</time>
      </trkpt>
      <trkpt lat="45.19546" lon="4.72852">
        <ele>295</ele>
        <time>2007-04-09T15:06:25Z</time>
      </trkpt>
      <trkpt lat="45.19524" lon="4.72846">
        <ele>296</ele>
        <time>2007-04-09T15:06:43Z</time>
      </trkpt>
      <trkpt lat="45.19505" lon="4.72833">
        <ele>298</ele>
        <time>2007-04-09T15:06:58Z</time>
      </trkpt>
      <trkpt lat="45.19488" lon="4.7282">
        <ele>300</ele>
        <time>2007-04-09T15:07:13Z</time>
      </trkpt>
      <trkpt lat="45.19486" lon="4.72818">
        <ele>303</ele>
        <time>2007-04-09T15:07:37Z</time>
      </trkpt>
      <trkpt lat="45.19473" lon="4.72813">
        <ele>304</ele>
        <time>2007-04-09T15:07:49Z</time>
      </trkpt>
      <trkpt lat="45.19458" lon="4.72807">
        <ele>302</ele>
        <time>2007-04-09T15:08:03Z</time>
      </trkpt>
      <trkpt lat="45.19441" lon="4.72803">
        <ele>304</ele>
        <time>2007-04-09T15:08:17Z</time>
      </trkpt>
      <trkpt lat="45.19421" lon="4.72796">
        <ele>305</ele>
        <time>2007-04-09T15:08:33Z</time>
      </trkpt>
      <trkpt lat="45.19404" lon="4.7279">
        <ele>308</ele>
        <time>2007-04-09T15:08:49Z</time>
      </trkpt>
      <trkpt lat="45.19387" lon="4.72779">
        <ele>311</ele>
        <time>2007-04-09T15:09:04Z</time>
      </trkpt>
      <trkpt lat="45.19381" lon="4.7276">
        <ele>312</ele>
        <time>2007-04-09T15:09:17Z</time>
      </trkpt>
      <trkpt lat="45.19378" lon="4.72743">
        <ele>313</ele>
        <time>2007-04-09T15:09:30Z</time>
      </trkpt>
      <trkpt lat="45.19378" lon="4.72738">
        <ele>313</ele>
        <time>2007-04-09T15:09:33Z</time>
      </trkpt>
      <trkpt lat="45.19374" lon="4.72732">
        <ele>316</ele>
        <time>2007-04-09T15:09:38Z</time>
      </trkpt>
      <trkpt lat="45.19359" lon="4.72717">
        <ele>318</ele>
        <time>2007-04-09T15:09:54Z</time>
      </trkpt>
      <trkpt lat="45.1934" lon="4.72706">
        <ele>320</ele>
        <time>2007-04-09T15:10:09Z</time>
      </trkpt>
      <trkpt lat="45.19327" lon="4.72693">
        <ele>321</ele>
        <time>2007-04-09T15:10:25Z</time>
      </trkpt>
      <trkpt lat="45.19318" lon="4.72682">
        <ele>322</ele>
        <time>2007-04-09T15:10:39Z</time>
      </trkpt>
      <trkpt lat="45.19303" lon="4.72665">
        <ele>322</ele>
        <time>2007-04-09T15:10:54Z</time>
      </trkpt>
      <trkpt lat="45.19284" lon="4.72652">
        <ele>323</ele>
        <time>2007-04-09T15:11:07Z</time>
      </trkpt>
      <trkpt lat="45.19282" lon="4.7265">
        <ele>324</ele>
        <time>2007-04-09T15:11:09Z</time>
      </trkpt>
      <trkpt lat="45.19275" lon="4.72646">
        <ele>323</ele>
        <time>2007-04-09T15:11:14Z</time>
      </trkpt>
      <trkpt lat="45.1926" lon="4.72633">
        <ele>324</ele>
        <time>2007-04-09T15:11:28Z</time>
      </trkpt>
      <trkpt lat="45.19245" lon="4.72622">
        <ele>328</ele>
        <time>2007-04-09T15:11:48Z</time>
      </trkpt>
      <trkpt lat="45.19241" lon="4.72627">
        <ele>330</ele>
        <time>2007-04-09T15:11:52Z</time>
      </trkpt>
      <trkpt lat="45.19239" lon="4.72655">
        <ele>327</ele>
        <time>2007-04-09T15:12:00Z</time>
      </trkpt>
      <trkpt lat="45.19224" lon="4.72667">
        <ele>324</ele>
        <time>2007-04-09T15:12:04Z</time>
      </trkpt>
      <trkpt lat="45.19213" lon="4.72698">
        <ele>320</ele>
        <time>2007-04-09T15:12:09Z</time>
      </trkpt>
      <trkpt lat="45.19194" lon="4.72702">
        <ele>315</ele>
        <time>2007-04-09T15:12:16Z</time>
      </trkpt>
      <trkpt lat="45.19194" lon="4.7271">
        <ele>315</ele>
        <time>2007-04-09T15:12:22Z</time>
      </trkpt>
      <trkpt lat="45.19192" lon="4.72721">
        <ele>314</ele>
        <time>2007-04-09T15:12:31Z</time>
      </trkpt>
      <trkpt lat="45.19194" lon="4.72725">
        <ele>315</ele>
        <time>2007-04-09T15:12:33Z</time>
      </trkpt>
      <trkpt lat="45.19217" lon="4.7274">
        <ele>315</ele>
        <time>2007-04-09T15:12:37Z</time>
      </trkpt>
      <trkpt lat="45.19226" lon="4.72751">
        <ele>315</ele>
        <time>2007-04-09T15:12:39Z</time>
      </trkpt>
      <trkpt lat="45.19226" lon="4.7276">
        <ele>314</ele>
        <time>2007-04-09T15:12:41Z</time>
      </trkpt>
      <trkpt lat="45.19209" lon="4.72777">
        <ele>307</ele>
        <time>2007-04-09T15:12:53Z</time>
      </trkpt>
      <trkpt lat="45.19196" lon="4.72779">
        <ele>306</ele>
        <time>2007-04-09T15:13:07Z</time>
      </trkpt>
      <trkpt lat="45.19185" lon="4.72783">
        <ele>305</ele>
        <time>2007-04-09T15:13:20Z</time>
      </trkpt>
      <trkpt lat="45.19187" lon="4.72788">
        <ele>306</ele>
        <time>2007-04-09T15:13:35Z</time>
      </trkpt>
      <trkpt lat="45.19194" lon="4.7279">
        <ele>306</ele>
        <time>2007-04-09T15:15:33Z</time>
      </trkpt>
      <trkpt lat="45.19215" lon="4.72813">
        <ele>304</ele>
        <time>2007-04-09T15:15:50Z</time>
      </trkpt>
      <trkpt lat="45.19239" lon="4.72841">
        <ele>302</ele>
        <time>2007-04-09T15:16:10Z</time>
      </trkpt>
      <trkpt lat="45.19245" lon="4.7285">
        <ele>303</ele>
        <time>2007-04-09T15:16:16Z</time>
      </trkpt>
      <trkpt lat="45.19243" lon="4.72863">
        <ele>305</ele>
        <time>2007-04-09T15:16:24Z</time>
      </trkpt>
      <trkpt lat="45.19239" lon="4.72863">
        <ele>307</ele>
        <time>2007-04-09T15:16:28Z</time>
      </trkpt>
      <trkpt lat="45.1922" lon="4.72867">
        <ele>313</ele>
        <time>2007-04-09T15:16:45Z</time>
      </trkpt>
      <trkpt lat="45.19202" lon="4.72869">
        <ele>317</ele>
        <time>2007-04-09T15:16:59Z</time>
      </trkpt>
      <trkpt lat="45.19183" lon="4.72867">
        <ele>322</ele>
        <time>2007-04-09T15:17:15Z</time>
      </trkpt>
      <trkpt lat="45.1917" lon="4.72873">
        <ele>325</ele>
        <time>2007-04-09T15:17:28Z</time>
      </trkpt>
      <trkpt lat="45.19172" lon="4.72878">
        <ele>325</ele>
        <time>2007-04-09T15:17:32Z</time>
      </trkpt>
      <trkpt lat="45.19175" lon="4.72884">
        <ele>326</ele>
        <time>2007-04-09T15:17:36Z</time>
      </trkpt>
      <trkpt lat="45.19177" lon="4.72888">
        <ele>327</ele>
        <time>2007-04-09T15:17:39Z</time>
      </trkpt>
      <trkpt lat="45.19175" lon="4.72916">
        <ele>331</ele>
        <time>2007-04-09T15:17:56Z</time>
      </trkpt>
      <trkpt lat="45.19166" lon="4.72925">
        <ele>333</ele>
        <time>2007-04-09T15:18:04Z</time>
      </trkpt>
      <trkpt lat="45.19151" lon="4.72942">
        <ele>337</ele>
        <time>2007-04-09T15:18:20Z</time>
      </trkpt>
      <trkpt lat="45.19138" lon="4.72961">
        <ele>340</ele>
        <time>2007-04-09T15:18:36Z</time>
      </trkpt>
      <trkpt lat="45.19138" lon="4.72961">
        <ele>340</ele>
        <time>2007-04-09T15:18:47Z</time>
      </trkpt>
      <trkpt lat="45.19136" lon="4.72964">
        <ele>338</ele>
        <time>2007-04-09T15:19:31Z</time>
      </trkpt>
      <trkpt lat="45.19138" lon="4.72964">
        <ele>340</ele>
        <time>2007-04-09T15:20:50Z</time>
      </trkpt>
      <trkpt lat="45.19138" lon="4.72964">
        <ele>340</ele>
        <time>2007-04-09T15:21:20Z</time>
      </trkpt>
      <trkpt lat="45.19138" lon="4.72964">
        <ele>341</ele>
        <time>2007-04-09T15:22:27Z</time>
      </trkpt>
      <trkpt lat="45.19138" lon="4.72964">
        <ele>340</ele>
        <time>2007-04-09T15:24:14Z</time>
      </trkpt>
      <trkpt lat="45.19138" lon="4.72964">
        <ele>340</ele>
        <time>2007-04-09T15:24:34Z</time>
      </trkpt>
      <trkpt lat="45.19138" lon="4.72964">
        <ele>339</ele>
        <time>2007-04-09T15:24:57Z</time>
      </trkpt>
      <trkpt lat="45.1914" lon="4.72981">
        <ele>340</ele>
        <time>2007-04-09T15:25:06Z</time>
      </trkpt>
      <trkpt lat="45.19155" lon="4.73006">
        <ele>343</ele>
        <time>2007-04-09T15:25:17Z</time>
      </trkpt>
      <trkpt lat="45.19172" lon="4.73032">
        <ele>346</ele>
        <time>2007-04-09T15:25:32Z</time>
      </trkpt>
      <trkpt lat="45.19179" lon="4.73043">
        <ele>346</ele>
        <time>2007-04-09T15:25:37Z</time>
      </trkpt>
      <trkpt lat="45.19177" lon="4.73054">
        <ele>346</ele>
        <time>2007-04-09T15:25:41Z</time>
      </trkpt>
      <trkpt lat="45.19164" lon="4.73086">
        <ele>348</ele>
        <time>2007-04-09T15:25:56Z</time>
      </trkpt>
      <trkpt lat="45.19151" lon="4.7312">
        <ele>351</ele>
        <time>2007-04-09T15:26:13Z</time>
      </trkpt>
      <trkpt lat="45.19155" lon="4.73148">
        <ele>354</ele>
        <time>2007-04-09T15:26:26Z</time>
      </trkpt>
      <trkpt lat="45.19164" lon="4.73176">
        <ele>355</ele>
        <time>2007-04-09T15:26:41Z</time>
      </trkpt>
      <trkpt lat="45.1917" lon="4.73202">
        <ele>357</ele>
        <time>2007-04-09T15:26:55Z</time>
      </trkpt>
      <trkpt lat="45.1917" lon="4.7321">
        <ele>357</ele>
        <time>2007-04-09T15:26:59Z</time>
      </trkpt>
      <trkpt lat="45.1917" lon="4.73217">
        <ele>357</ele>
        <time>2007-04-09T15:27:01Z</time>
      </trkpt>
      <trkpt lat="45.1917" lon="4.73204">
        <ele>357</ele>
        <time>2007-04-09T15:27:07Z</time>
      </trkpt>
      <trkpt lat="45.19164" lon="4.73187">
        <ele>357</ele>
        <time>2007-04-09T15:27:12Z</time>
      </trkpt>
      <trkpt lat="45.19168" lon="4.73182">
        <ele>358</ele>
        <time>2007-04-09T15:27:16Z</time>
      </trkpt>
      <trkpt lat="45.19168" lon="4.73191">
        <ele>358</ele>
        <time>2007-04-09T15:27:20Z</time>
      </trkpt>
      <trkpt lat="45.1917" lon="4.73221">
        <ele>360</ele>
        <time>2007-04-09T15:27:34Z</time>
      </trkpt>
      <trkpt lat="45.19162" lon="4.73247">
        <ele>361</ele>
        <time>2007-04-09T15:27:46Z</time>
      </trkpt>
      <trkpt lat="45.19142" lon="4.73262">
        <ele>363</ele>
        <time>2007-04-09T15:28:01Z</time>
      </trkpt>
      <trkpt lat="45.19119" lon="4.73275">
        <ele>365</ele>
        <time>2007-04-09T15:28:17Z</time>
      </trkpt>
      <trkpt lat="45.19097" lon="4.733">
        <ele>365</ele>
        <time>2007-04-09T15:28:29Z</time>
      </trkpt>
      <trkpt lat="45.19067" lon="4.73318">
        <ele>365</ele>
        <time>2007-04-09T15:28:41Z</time>
      </trkpt>
      <trkpt lat="45.19022" lon="4.73318">
        <ele>366</ele>
        <time>2007-04-09T15:28:58Z</time>
      </trkpt>
      <trkpt lat="45.18981" lon="4.73315">
        <ele>366</ele>
        <time>2007-04-09T15:29:14Z</time>
      </trkpt>
      <trkpt lat="45.18943" lon="4.73315">
        <ele>367</ele>
        <time>2007-04-09T15:29:29Z</time>
      </trkpt>
      <trkpt lat="45.18919" lon="4.73315">
        <ele>367</ele>
        <time>2007-04-09T15:29:39Z</time>
      </trkpt>
      <trkpt lat="45.18919" lon="4.73348">
        <ele>368</ele>
        <time>2007-04-09T15:29:48Z</time>
      </trkpt>
      <trkpt lat="45.18934" lon="4.73408">
        <ele>368</ele>
        <time>2007-04-09T15:30:03Z</time>
      </trkpt>
      <trkpt lat="45.1896" lon="4.73468">
        <ele>369</ele>
        <time>2007-04-09T15:30:19Z</time>
      </trkpt>
      <trkpt lat="45.18964" lon="4.73476">
        <ele>369</ele>
        <time>2007-04-09T15:30:22Z</time>
      </trkpt>
      <trkpt lat="45.1896" lon="4.73483">
        <ele>369</ele>
        <time>2007-04-09T15:30:26Z</time>
      </trkpt>
      <trkpt lat="45.18936" lon="4.73489">
        <ele>372</ele>
        <time>2007-04-09T15:30:38Z</time>
      </trkpt>
      <trkpt lat="45.18904" lon="4.735">
        <ele>374</ele>
        <time>2007-04-09T15:30:52Z</time>
      </trkpt>
      <trkpt lat="45.18874" lon="4.73506">
        <ele>375</ele>
        <time>2007-04-09T15:31:05Z</time>
      </trkpt>
      <trkpt lat="45.18859" lon="4.73534">
        <ele>374</ele>
        <time>2007-04-09T15:31:13Z</time>
      </trkpt>
      <trkpt lat="45.18859" lon="4.73539">
        <ele>374</ele>
        <time>2007-04-09T15:31:14Z</time>
      </trkpt>
      <trkpt lat="45.18846" lon="4.73543">
        <ele>375</ele>
        <time>2007-04-09T15:31:18Z</time>
      </trkpt>
      <trkpt lat="45.18808" lon="4.73534">
        <ele>376</ele>
        <time>2007-04-09T15:31:31Z</time>
      </trkpt>
      <trkpt lat="45.18767" lon="4.73534">
        <ele>376</ele>
        <time>2007-04-09T15:31:46Z</time>
      </trkpt>
      <trkpt lat="45.18741" lon="4.73562">
        <ele>376</ele>
        <time>2007-04-09T15:31:58Z</time>
      </trkpt>
      <trkpt lat="45.18703" lon="4.73605">
        <ele>376</ele>
        <time>2007-04-09T15:32:15Z</time>
      </trkpt>
      <trkpt lat="45.18681" lon="4.73622">
        <ele>378</ele>
        <time>2007-04-09T15:32:25Z</time>
      </trkpt>
      <trkpt lat="45.18672" lon="4.73622">
        <ele>378</ele>
        <time>2007-04-09T15:32:29Z</time>
      </trkpt>
      <trkpt lat="45.18655" lon="4.73612">
        <ele>377</ele>
        <time>2007-04-09T15:32:36Z</time>
      </trkpt>
      <trkpt lat="45.1863" lon="4.73633">
        <ele>377</ele>
        <time>2007-04-09T15:32:47Z</time>
      </trkpt>
      <trkpt lat="45.18615" lon="4.73639">
        <ele>376</ele>
        <time>2007-04-09T15:32:51Z</time>
      </trkpt>
      <trkpt lat="45.18597" lon="4.73603">
        <ele>374</ele>
        <time>2007-04-09T15:32:59Z</time>
      </trkpt>
      <trkpt lat="45.1858" lon="4.73571">
        <ele>372</ele>
        <time>2007-04-09T15:33:04Z</time>
      </trkpt>
      <trkpt lat="45.18565" lon="4.73554">
        <ele>372</ele>
        <time>2007-04-09T15:33:07Z</time>
      </trkpt>
      <trkpt lat="45.18552" lon="4.73515">
        <ele>372</ele>
        <time>2007-04-09T15:33:14Z</time>
      </trkpt>
      <trkpt lat="45.18559" lon="4.73509">
        <ele>373</ele>
        <time>2007-04-09T15:33:17Z</time>
      </trkpt>
      <trkpt lat="45.18567" lon="4.73502">
        <ele>373</ele>
        <time>2007-04-09T15:33:20Z</time>
      </trkpt>
      <trkpt lat="45.18584" lon="4.73517">
        <ele>372</ele>
        <time>2007-04-09T15:33:29Z</time>
      </trkpt>
      <trkpt lat="45.18584" lon="4.73517">
        <ele>370</ele>
        <time>2007-04-09T15:34:13Z</time>
      </trkpt>
      <trkpt lat="45.18584" lon="4.73515">
        <ele>379</ele>
        <time>2007-04-09T15:39:56Z</time>
      </trkpt>
      <trkpt lat="45.1858" lon="4.73513">
        <ele>377</ele>
        <time>2007-04-09T15:40:03Z</time>
      </trkpt>
      <trkpt lat="45.18576" lon="4.73519">
        <ele>377</ele>
        <time>2007-04-09T15:40:05Z</time>
      </trkpt>
      <trkpt lat="45.18565" lon="4.73536">
        <ele>375</ele>
        <time>2007-04-09T15:40:12Z</time>
      </trkpt>
      <trkpt lat="45.18554" lon="4.73524">
        <ele>375</ele>
        <time>2007-04-09T15:40:18Z</time>
      </trkpt>
      <trkpt lat="45.18539" lon="4.735">
        <ele>374</ele>
        <time>2007-04-09T15:40:28Z</time>
      </trkpt>
      <trkpt lat="45.18518" lon="4.73466">
        <ele>373</ele>
        <time>2007-04-09T15:40:39Z</time>
      </trkpt>
      <trkpt lat="45.18503" lon="4.73438">
        <ele>373</ele>
        <time>2007-04-09T15:40:47Z</time>
      </trkpt>
      <trkpt lat="45.18481" lon="4.73382">
        <ele>372</ele>
        <time>2007-04-09T15:41:00Z</time>
      </trkpt>
      <trkpt lat="45.18454" lon="4.73324">
        <ele>373</ele>
        <time>2007-04-09T15:41:15Z</time>
      </trkpt>
      <trkpt lat="45.18436" lon="4.73285">
        <ele>374</ele>
        <time>2007-04-09T15:41:26Z</time>
      </trkpt>
      <trkpt lat="45.18434" lon="4.73266">
        <ele>376</ele>
        <time>2007-04-09T15:41:32Z</time>
      </trkpt>
      <trkpt lat="45.18432" lon="4.73232">
        <ele>379</ele>
        <time>2007-04-09T15:41:46Z</time>
      </trkpt>
      <trkpt lat="45.18426" lon="4.73206">
        <ele>379</ele>
        <time>2007-04-09T15:41:56Z</time>
      </trkpt>
      <trkpt lat="45.18419" lon="4.73172">
        <ele>382</ele>
        <time>2007-04-09T15:42:09Z</time>
      </trkpt>
      <trkpt lat="45.18413" lon="4.73144">
        <ele>383</ele>
        <time>2007-04-09T15:42:21Z</time>
      </trkpt>
      <trkpt lat="45.18409" lon="4.73112">
        <ele>385</ele>
        <time>2007-04-09T15:42:35Z</time>
      </trkpt>
      <trkpt lat="45.18406" lon="4.73071">
        <ele>387</ele>
        <time>2007-04-09T15:42:50Z</time>
      </trkpt>
      <trkpt lat="45.18411" lon="4.73037">
        <ele>387</ele>
        <time>2007-04-09T15:43:01Z</time>
      </trkpt>
      <trkpt lat="45.18413" lon="4.72983">
        <ele>388</ele>
        <time>2007-04-09T15:43:15Z</time>
      </trkpt>
      <trkpt lat="45.18404" lon="4.72923">
        <ele>388</ele>
        <time>2007-04-09T15:43:30Z</time>
      </trkpt>
      <trkpt lat="45.18376" lon="4.72876">
        <ele>387</ele>
        <time>2007-04-09T15:43:41Z</time>
      </trkpt>
      <trkpt lat="45.18363" lon="4.72852">
        <ele>386</ele>
        <time>2007-04-09T15:43:46Z</time>
      </trkpt>
      <trkpt lat="45.18348" lon="4.72779">
        <ele>382</ele>
        <time>2007-04-09T15:43:56Z</time>
      </trkpt>
      <trkpt lat="45.18299" lon="4.72682">
        <ele>379</ele>
        <time>2007-04-09T15:44:08Z</time>
      </trkpt>
      <trkpt lat="45.1826" lon="4.72592">
        <ele>378</ele>
        <time>2007-04-09T15:44:21Z</time>
      </trkpt>
      <trkpt lat="45.1822" lon="4.72554">
        <ele>375</ele>
        <time>2007-04-09T15:44:30Z</time>
      </trkpt>
      <trkpt lat="45.18203" lon="4.72539">
        <ele>374</ele>
        <time>2007-04-09T15:44:33Z</time>
      </trkpt>
      <trkpt lat="45.18192" lon="4.725">
        <ele>374</ele>
        <time>2007-04-09T15:44:38Z</time>
      </trkpt>
      <trkpt lat="45.18192" lon="4.72367">
        <ele>373</ele>
        <time>2007-04-09T15:44:54Z</time>
      </trkpt>
      <trkpt lat="45.18183" lon="4.72277">
        <ele>375</ele>
        <time>2007-04-09T15:45:08Z</time>
      </trkpt>
      <trkpt lat="45.18164" lon="4.72236">
        <ele>376</ele>
        <time>2007-04-09T15:45:18Z</time>
      </trkpt>
      <trkpt lat="45.18119" lon="4.72176">
        <ele>377</ele>
        <time>2007-04-09T15:45:36Z</time>
      </trkpt>
      <trkpt lat="45.18087" lon="4.72142">
        <ele>378</ele>
        <time>2007-04-09T15:45:49Z</time>
      </trkpt>
      <trkpt lat="45.18039" lon="4.72099">
        <ele>380</ele>
        <time>2007-04-09T15:46:07Z</time>
      </trkpt>
      <trkpt lat="45.18009" lon="4.72069">
        <ele>383</ele>
        <time>2007-04-09T15:46:22Z</time>
      </trkpt>
      <trkpt lat="45.17997" lon="4.72041">
        <ele>383</ele>
        <time>2007-04-09T15:46:32Z</time>
      </trkpt>
      <trkpt lat="45.17973" lon="4.72007">
        <ele>385</ele>
        <time>2007-04-09T15:46:45Z</time>
      </trkpt>
      <trkpt lat="45.17954" lon="4.71964">
        <ele>384</ele>
        <time>2007-04-09T15:46:58Z</time>
      </trkpt>
      <trkpt lat="45.17934" lon="4.71916">
        <ele>385</ele>
        <time>2007-04-09T15:47:11Z</time>
      </trkpt>
      <trkpt lat="45.17913" lon="4.71848">
        <ele>386</ele>
        <time>2007-04-09T15:47:30Z</time>
      </trkpt>
      <trkpt lat="45.179" lon="4.71811">
        <ele>387</ele>
        <time>2007-04-09T15:47:40Z</time>
      </trkpt>
      <trkpt lat="45.17885" lon="4.7176">
        <ele>387</ele>
        <time>2007-04-09T15:47:53Z</time>
      </trkpt>
      <trkpt lat="45.17864" lon="4.71702">
        <ele>386</ele>
        <time>2007-04-09T15:48:06Z</time>
      </trkpt>
      <trkpt lat="45.17827" lon="4.7165">
        <ele>385</ele>
        <time>2007-04-09T15:48:18Z</time>
      </trkpt>
      <trkpt lat="45.17791" lon="4.71569">
        <ele>385</ele>
        <time>2007-04-09T15:48:33Z</time>
      </trkpt>
      <trkpt lat="45.17778" lon="4.71492">
        <ele>385</ele>
        <time>2007-04-09T15:48:46Z</time>
      </trkpt>
      <trkpt lat="45.17769" lon="4.71425">
        <ele>386</ele>
        <time>2007-04-09T15:48:58Z</time>
      </trkpt>
      <trkpt lat="45.17761" lon="4.71389">
        <ele>384</ele>
        <time>2007-04-09T15:49:04Z</time>
      </trkpt>
      <trkpt lat="45.17758" lon="4.7129">
        <ele>383</ele>
        <time>2007-04-09T15:49:20Z</time>
      </trkpt>
      <trkpt lat="45.17752" lon="4.71198">
        <ele>384</ele>
        <time>2007-04-09T15:49:36Z</time>
      </trkpt>
      <trkpt lat="45.17748" lon="4.71114">
        <ele>386</ele>
        <time>2007-04-09T15:49:50Z</time>
      </trkpt>
      <trkpt lat="45.17748" lon="4.7103">
        <ele>386</ele>
        <time>2007-04-09T15:50:05Z</time>
      </trkpt>
      <trkpt lat="45.17745" lon="4.70966">
        <ele>386</ele>
        <time>2007-04-09T15:50:18Z</time>
      </trkpt>
      <trkpt lat="45.17745" lon="4.70914">
        <ele>388</ele>
        <time>2007-04-09T15:50:29Z</time>
      </trkpt>
      <trkpt lat="45.17741" lon="4.7085">
        <ele>389</ele>
        <time>2007-04-09T15:50:43Z</time>
      </trkpt>
      <trkpt lat="45.17737" lon="4.70794">
        <ele>390</ele>
        <time>2007-04-09T15:50:56Z</time>
      </trkpt>
      <trkpt lat="45.17733" lon="4.70745">
        <ele>391</ele>
        <time>2007-04-09T15:51:06Z</time>
      </trkpt>
      <trkpt lat="45.17726" lon="4.70678">
        <ele>392</ele>
        <time>2007-04-09T15:51:22Z</time>
      </trkpt>
      <trkpt lat="45.17711" lon="4.70608">
        <ele>392</ele>
        <time>2007-04-09T15:51:39Z</time>
      </trkpt>
      <trkpt lat="45.17694" lon="4.70545">
        <ele>391</ele>
        <time>2007-04-09T15:51:52Z</time>
      </trkpt>
      <trkpt lat="45.17685" lon="4.70505">
        <ele>390</ele>
        <time>2007-04-09T15:52:00Z</time>
      </trkpt>
      <trkpt lat="45.17681" lon="4.70419">
        <ele>386</ele>
        <time>2007-04-09T15:52:12Z</time>
      </trkpt>
      <trkpt lat="45.17673" lon="4.70344">
        <ele>384</ele>
        <time>2007-04-09T15:52:22Z</time>
      </trkpt>
      <trkpt lat="45.1767" lon="4.70337">
        <ele>385</ele>
        <time>2007-04-09T15:52:23Z</time>
      </trkpt>
      <trkpt lat="45.17647" lon="4.70354">
        <ele>386</ele>
        <time>2007-04-09T15:52:32Z</time>
      </trkpt>
      <trkpt lat="45.17619" lon="4.70371">
        <ele>388</ele>
        <time>2007-04-09T15:52:43Z</time>
      </trkpt>
      <trkpt lat="45.17593" lon="4.70384">
        <ele>389</ele>
        <time>2007-04-09T15:52:55Z</time>
      </trkpt>
      <trkpt lat="45.17555" lon="4.70399">
        <ele>390</ele>
        <time>2007-04-09T15:53:10Z</time>
      </trkpt>
      <trkpt lat="45.17522" lon="4.7041">
        <ele>392</ele>
        <time>2007-04-09T15:53:23Z</time>
      </trkpt>
      <trkpt lat="45.17486" lon="4.70419">
        <ele>393</ele>
        <time>2007-04-09T15:53:39Z</time>
      </trkpt>
      <trkpt lat="45.17452" lon="4.70423">
        <ele>395</ele>
        <time>2007-04-09T15:53:55Z</time>
      </trkpt>
      <trkpt lat="45.17419" lon="4.70417">
        <ele>397</ele>
        <time>2007-04-09T15:54:11Z</time>
      </trkpt>
      <trkpt lat="45.17413" lon="4.70414">
        <ele>398</ele>
        <time>2007-04-09T15:54:21Z</time>
      </trkpt>
      <trkpt lat="45.17413" lon="4.70414">
        <ele>399</ele>
        <time>2007-04-09T15:54:28Z</time>
      </trkpt>
      <trkpt lat="45.17389" lon="4.70412">
        <ele>399</ele>
        <time>2007-04-09T15:54:38Z</time>
      </trkpt>
      <trkpt lat="45.17349" lon="4.70408">
        <ele>400</ele>
        <time>2007-04-09T15:54:54Z</time>
      </trkpt>
      <trkpt lat="45.1731" lon="4.70397">
        <ele>401</ele>
        <time>2007-04-09T15:55:09Z</time>
      </trkpt>
      <trkpt lat="45.1728" lon="4.70395">
        <ele>403</ele>
        <time>2007-04-09T15:55:22Z</time>
      </trkpt>
      <trkpt lat="45.17243" lon="4.70393">
        <ele>403</ele>
        <time>2007-04-09T15:55:36Z</time>
      </trkpt>
      <trkpt lat="45.17188" lon="4.70382">
        <ele>404</ele>
        <time>2007-04-09T15:55:55Z</time>
      </trkpt>
      <trkpt lat="45.17151" lon="4.70378">
        <ele>406</ele>
        <time>2007-04-09T15:56:08Z</time>
      </trkpt>
      <trkpt lat="45.17145" lon="4.7038">
        <ele>406</ele>
        <time>2007-04-09T15:56:11Z</time>
      </trkpt>
      <trkpt lat="45.17125" lon="4.70406">
        <ele>406</ele>
        <time>2007-04-09T15:56:21Z</time>
      </trkpt>
      <trkpt lat="45.17097" lon="4.70444">
        <ele>406</ele>
        <time>2007-04-09T15:56:32Z</time>
      </trkpt>
      <trkpt lat="45.17074" lon="4.70496">
        <ele>407</ele>
        <time>2007-04-09T15:56:45Z</time>
      </trkpt>
      <trkpt lat="45.17063" lon="4.70517">
        <ele>408</ele>
        <time>2007-04-09T15:56:53Z</time>
      </trkpt>
      <trkpt lat="45.17046" lon="4.70543">
        <ele>407</ele>
        <time>2007-04-09T15:57:03Z</time>
      </trkpt>
      <trkpt lat="45.17031" lon="4.70545">
        <ele>408</ele>
        <time>2007-04-09T15:57:09Z</time>
      </trkpt>
      <trkpt lat="45.1702" lon="4.70543">
        <ele>408</ele>
        <time>2007-04-09T15:57:13Z</time>
      </trkpt>
      <trkpt lat="45.17018" lon="4.70509">
        <ele>408</ele>
        <time>2007-04-09T15:57:22Z</time>
      </trkpt>
      <trkpt lat="45.17018" lon="4.70455">
        <ele>407</ele>
        <time>2007-04-09T15:57:33Z</time>
      </trkpt>
      <trkpt lat="45.17016" lon="4.70395">
        <ele>407</ele>
        <time>2007-04-09T15:57:45Z</time>
      </trkpt>
      <trkpt lat="45.16971" lon="4.70387">
        <ele>407</ele>
        <time>2007-04-09T15:57:55Z</time>
      </trkpt>
      <trkpt lat="45.169" lon="4.70367">
        <ele>404</ele>
        <time>2007-04-09T15:58:08Z</time>
      </trkpt>
      <trkpt lat="45.16816" lon="4.70322">
        <ele>401</ele>
        <time>2007-04-09T15:58:22Z</time>
      </trkpt>
      <trkpt lat="45.16806" lon="4.70311">
        <ele>401</ele>
        <time>2007-04-09T15:58:24Z</time>
      </trkpt>
      <trkpt lat="45.16776" lon="4.70275">
        <ele>401</ele>
        <time>2007-04-09T15:58:30Z</time>
      </trkpt>
      <trkpt lat="45.16741" lon="4.70275">
        <ele>398</ele>
        <time>2007-04-09T15:58:35Z</time>
      </trkpt>
      <trkpt lat="45.16728" lon="4.70296">
        <ele>395</ele>
        <time>2007-04-09T15:58:37Z</time>
      </trkpt>
      <trkpt lat="45.1669" lon="4.70457">
        <ele>390</ele>
        <time>2007-04-09T15:58:49Z</time>
      </trkpt>
      <trkpt lat="45.16685" lon="4.70481">
        <ele>390</ele>
        <time>2007-04-09T15:58:51Z</time>
      </trkpt>
      <trkpt lat="45.16649" lon="4.70509">
        <ele>391</ele>
        <time>2007-04-09T15:58:59Z</time>
      </trkpt>
      <trkpt lat="45.1661" lon="4.70554">
        <ele>391</ele>
        <time>2007-04-09T15:59:11Z</time>
      </trkpt>
      <trkpt lat="45.16595" lon="4.70575">
        <ele>391</ele>
        <time>2007-04-09T15:59:17Z</time>
      </trkpt>
      <trkpt lat="45.16559" lon="4.70646">
        <ele>390</ele>
        <time>2007-04-09T15:59:28Z</time>
      </trkpt>
      <trkpt lat="45.16514" lon="4.70745">
        <ele>389</ele>
        <time>2007-04-09T15:59:42Z</time>
      </trkpt>
      <trkpt lat="45.16454" lon="4.70878">
        <ele>388</ele>
        <time>2007-04-09T16:00:00Z</time>
      </trkpt>
      <trkpt lat="45.16409" lon="4.70921">
        <ele>384</ele>
        <time>2007-04-09T16:00:07Z</time>
      </trkpt>
      <trkpt lat="45.164" lon="4.7091">
        <ele>382</ele>
        <time>2007-04-09T16:00:11Z</time>
      </trkpt>
      <trkpt lat="45.16394" lon="4.70878">
        <ele>381</ele>
        <time>2007-04-09T16:00:23Z</time>
      </trkpt>
      <trkpt lat="45.16383" lon="4.70844">
        <ele>383</ele>
        <time>2007-04-09T16:00:37Z</time>
      </trkpt>
      <trkpt lat="45.16374" lon="4.70811">
        <ele>386</ele>
        <time>2007-04-09T16:00:52Z</time>
      </trkpt>
      <trkpt lat="45.16366" lon="4.70788">
        <ele>387</ele>
        <time>2007-04-09T16:01:04Z</time>
      </trkpt>
      <trkpt lat="45.16359" lon="4.70756">
        <ele>389</ele>
        <time>2007-04-09T16:01:19Z</time>
      </trkpt>
      <trkpt lat="45.16357" lon="4.70732">
        <ele>390</ele>
        <time>2007-04-09T16:01:30Z</time>
      </trkpt>
      <trkpt lat="45.16355" lon="4.70702">
        <ele>392</ele>
        <time>2007-04-09T16:01:44Z</time>
      </trkpt>
      <trkpt lat="45.16353" lon="4.7067">
        <ele>395</ele>
        <time>2007-04-09T16:02:00Z</time>
      </trkpt>
      <trkpt lat="45.16351" lon="4.70642">
        <ele>397</ele>
        <time>2007-04-09T16:02:14Z</time>
      </trkpt>
      <trkpt lat="45.16349" lon="4.70614">
        <ele>398</ele>
        <time>2007-04-09T16:02:30Z</time>
      </trkpt>
      <trkpt lat="45.16346" lon="4.70593">
        <ele>401</ele>
        <time>2007-04-09T16:02:42Z</time>
      </trkpt>
      <trkpt lat="45.16346" lon="4.70577">
        <ele>402</ele>
        <time>2007-04-09T16:02:52Z</time>
      </trkpt>
      <trkpt lat="45.16344" lon="4.70547">
        <ele>405</ele>
        <time>2007-04-09T16:03:07Z</time>
      </trkpt>
      <trkpt lat="45.16344" lon="4.7052">
        <ele>405</ele>
        <time>2007-04-09T16:03:20Z</time>
      </trkpt>
      <trkpt lat="45.16342" lon="4.7047">
        <ele>408</ele>
        <time>2007-04-09T16:03:39Z</time>
      </trkpt>
      <trkpt lat="45.16344" lon="4.70429">
        <ele>409</ele>
        <time>2007-04-09T16:03:52Z</time>
      </trkpt>
      <trkpt lat="45.16344" lon="4.70365">
        <ele>408</ele>
        <time>2007-04-09T16:04:07Z</time>
      </trkpt>
      <trkpt lat="45.16342" lon="4.70309">
        <ele>409</ele>
        <time>2007-04-09T16:04:19Z</time>
      </trkpt>
      <trkpt lat="45.16338" lon="4.70249">
        <ele>409</ele>
        <time>2007-04-09T16:04:31Z</time>
      </trkpt>
      <trkpt lat="45.16329" lon="4.70165">
        <ele>408</ele>
        <time>2007-04-09T16:04:48Z</time>
      </trkpt>
      <trkpt lat="45.16325" lon="4.70123">
        <ele>409</ele>
        <time>2007-04-09T16:04:58Z</time>
      </trkpt>
      <trkpt lat="45.16319" lon="4.7005">
        <ele>410</ele>
        <time>2007-04-09T16:05:15Z</time>
      </trkpt>
      <trkpt lat="45.16316" lon="4.70037">
        <ele>410</ele>
        <time>2007-04-09T16:05:21Z</time>
      </trkpt>
      <trkpt lat="45.16314" lon="4.70041">
        <ele>410</ele>
        <time>2007-04-09T16:05:25Z</time>
      </trkpt>
      <trkpt lat="45.16301" lon="4.70039">
        <ele>410</ele>
        <time>2007-04-09T16:05:34Z</time>
      </trkpt>
      <trkpt lat="45.16278" lon="4.70026">
        <ele>412</ele>
        <time>2007-04-09T16:05:44Z</time>
      </trkpt>
      <trkpt lat="45.16243" lon="4.6999">
        <ele>412</ele>
        <time>2007-04-09T16:05:58Z</time>
      </trkpt>
      <trkpt lat="45.16226" lon="4.69938">
        <ele>413</ele>
        <time>2007-04-09T16:06:11Z</time>
      </trkpt>
      <trkpt lat="45.16218" lon="4.69921">
        <ele>414</ele>
        <time>2007-04-09T16:06:17Z</time>
      </trkpt>
      <trkpt lat="45.16198" lon="4.69925">
        <ele>412</ele>
        <time>2007-04-09T16:06:23Z</time>
      </trkpt>
      <trkpt lat="45.16168" lon="4.69955">
        <ele>409</ele>
        <time>2007-04-09T16:06:29Z</time>
      </trkpt>
      <trkpt lat="45.16143" lon="4.69953">
        <ele>407</ele>
        <time>2007-04-09T16:06:34Z</time>
      </trkpt>
      <trkpt lat="45.161" lon="4.6988">
        <ele>406</ele>
        <time>2007-04-09T16:06:47Z</time>
      </trkpt>
      <trkpt lat="45.16072" lon="4.69811">
        <ele>407</ele>
        <time>2007-04-09T16:06:59Z</time>
      </trkpt>
      <trkpt lat="45.16068" lon="4.69788">
        <ele>407</ele>
        <time>2007-04-09T16:07:03Z</time>
      </trkpt>
      <trkpt lat="45.1607" lon="4.69702">
        <ele>408</ele>
        <time>2007-04-09T16:07:18Z</time>
      </trkpt>
      <trkpt lat="45.1608" lon="4.69616">
        <ele>406</ele>
        <time>2007-04-09T16:07:33Z</time>
      </trkpt>
      <trkpt lat="45.16089" lon="4.69532">
        <ele>407</ele>
        <time>2007-04-09T16:07:46Z</time>
      </trkpt>
      <trkpt lat="45.16104" lon="4.69498">
        <ele>409</ele>
        <time>2007-04-09T16:07:56Z</time>
      </trkpt>
      <trkpt lat="45.16123" lon="4.6949">
        <ele>409</ele>
        <time>2007-04-09T16:08:06Z</time>
      </trkpt>
      <trkpt lat="45.16149" lon="4.69483">
        <ele>412</ele>
        <time>2007-04-09T16:08:17Z</time>
      </trkpt>
      <trkpt lat="45.16164" lon="4.69481">
        <ele>414</ele>
        <time>2007-04-09T16:08:28Z</time>
      </trkpt>
      <trkpt lat="45.16164" lon="4.69479">
        <ele>414</ele>
        <time>2007-04-09T16:08:31Z</time>
      </trkpt>
      <trkpt lat="45.16168" lon="4.69481">
        <ele>414</ele>
        <time>2007-04-09T16:08:36Z</time>
      </trkpt>
      <trkpt lat="45.16188" lon="4.69475">
        <ele>415</ele>
        <time>2007-04-09T16:08:47Z</time>
      </trkpt>
      <trkpt lat="45.16209" lon="4.69472">
        <ele>417</ele>
        <time>2007-04-09T16:09:00Z</time>
      </trkpt>
      <trkpt lat="45.16235" lon="4.69466">
        <ele>420</ele>
        <time>2007-04-09T16:09:16Z</time>
      </trkpt>
      <trkpt lat="45.16267" lon="4.69455">
        <ele>420</ele>
        <time>2007-04-09T16:09:29Z</time>
      </trkpt>
      <trkpt lat="45.16316" lon="4.69432">
        <ele>420</ele>
        <time>2007-04-09T16:09:46Z</time>
      </trkpt>
      <trkpt lat="45.16353" lon="4.69423">
        <ele>420</ele>
        <time>2007-04-09T16:09:56Z</time>
      </trkpt>
      <trkpt lat="45.1637" lon="4.69404">
        <ele>419</ele>
        <time>2007-04-09T16:10:03Z</time>
      </trkpt>
      <trkpt lat="45.16383" lon="4.69367">
        <ele>421</ele>
        <time>2007-04-09T16:10:13Z</time>
      </trkpt>
      <trkpt lat="45.16398" lon="4.69324">
        <ele>422</ele>
        <time>2007-04-09T16:10:27Z</time>
      </trkpt>
      <trkpt lat="45.16409" lon="4.69281">
        <ele>426</ele>
        <time>2007-04-09T16:10:43Z</time>
      </trkpt>
      <trkpt lat="45.16415" lon="4.69236">
        <ele>429</ele>
        <time>2007-04-09T16:11:00Z</time>
      </trkpt>
      <trkpt lat="45.16417" lon="4.69198">
        <ele>430</ele>
        <time>2007-04-09T16:11:12Z</time>
      </trkpt>
      <trkpt lat="45.16426" lon="4.69112">
        <ele>430</ele>
        <time>2007-04-09T16:11:27Z</time>
      </trkpt>
      <trkpt lat="45.1643" lon="4.69022">
        <ele>431</ele>
        <time>2007-04-09T16:11:43Z</time>
      </trkpt>
      <trkpt lat="45.16437" lon="4.68938">
        <ele>430</ele>
        <time>2007-04-09T16:11:56Z</time>
      </trkpt>
      <trkpt lat="45.16432" lon="4.68863">
        <ele>429</ele>
        <time>2007-04-09T16:12:08Z</time>
      </trkpt>
      <trkpt lat="45.16432" lon="4.68865">
        <ele>429</ele>
        <time>2007-04-09T16:12:14Z</time>
      </trkpt>
      <trkpt lat="45.16432" lon="4.68876">
        <ele>429</ele>
        <time>2007-04-09T16:12:19Z</time>
      </trkpt>
      <trkpt lat="45.16441" lon="4.68876">
        <ele>429</ele>
        <time>2007-04-09T16:12:23Z</time>
      </trkpt>
      <trkpt lat="45.16482" lon="4.68839">
        <ele>427</ele>
        <time>2007-04-09T16:12:34Z</time>
      </trkpt>
      <trkpt lat="45.16501" lon="4.68829">
        <ele>426</ele>
        <time>2007-04-09T16:12:38Z</time>
      </trkpt>
      <trkpt lat="45.16557" lon="4.6876">
        <ele>425</ele>
        <time>2007-04-09T16:12:52Z</time>
      </trkpt>
      <trkpt lat="45.16587" lon="4.68717">
        <ele>424</ele>
        <time>2007-04-09T16:13:00Z</time>
      </trkpt>
      <trkpt lat="45.16608" lon="4.68704">
        <ele>424</ele>
        <time>2007-04-09T16:13:05Z</time>
      </trkpt>
      <trkpt lat="45.16613" lon="4.68681">
        <ele>424</ele>
        <time>2007-04-09T16:13:09Z</time>
      </trkpt>
      <trkpt lat="45.1661" lon="4.68621">
        <ele>426</ele>
        <time>2007-04-09T16:13:22Z</time>
      </trkpt>
      <trkpt lat="45.16602" lon="4.68612">
        <ele>426</ele>
        <time>2007-04-09T16:13:31Z</time>
      </trkpt>
      <trkpt lat="45.16574" lon="4.68597">
        <ele>427</ele>
        <time>2007-04-09T16:13:40Z</time>
      </trkpt>
      <trkpt lat="45.16557" lon="4.6858">
        <ele>426</ele>
        <time>2007-04-09T16:13:48Z</time>
      </trkpt>
      <trkpt lat="45.16555" lon="4.6858">
        <ele>427</ele>
        <time>2007-04-09T16:13:51Z</time>
      </trkpt>
      <trkpt lat="45.16574" lon="4.68595">
        <ele>427</ele>
        <time>2007-04-09T16:14:01Z</time>
      </trkpt>
      <trkpt lat="45.16604" lon="4.68614">
        <ele>426</ele>
        <time>2007-04-09T16:14:12Z</time>
      </trkpt>
      <trkpt lat="45.16608" lon="4.68616">
        <ele>426</ele>
        <time>2007-04-09T16:14:13Z</time>
      </trkpt>
      <trkpt lat="45.1661" lon="4.68625">
        <ele>425</ele>
        <time>2007-04-09T16:14:17Z</time>
      </trkpt>
      <trkpt lat="45.16613" lon="4.68636">
        <ele>424</ele>
        <time>2007-04-09T16:14:22Z</time>
      </trkpt>
      <trkpt lat="45.16613" lon="4.68636">
        <ele>424</ele>
        <time>2007-04-09T16:14:28Z</time>
      </trkpt>
      <trkpt lat="45.16615" lon="4.68618">
        <ele>425</ele>
        <time>2007-04-09T16:14:33Z</time>
      </trkpt>
      <trkpt lat="45.1664" lon="4.68597">
        <ele>424</ele>
        <time>2007-04-09T16:14:42Z</time>
      </trkpt>
      <trkpt lat="45.16668" lon="4.68586">
        <ele>425</ele>
        <time>2007-04-09T16:14:52Z</time>
      </trkpt>
      <trkpt lat="45.16701" lon="4.68614">
        <ele>426</ele>
        <time>2007-04-09T16:15:02Z</time>
      </trkpt>
      <trkpt lat="45.1675" lon="4.68629">
        <ele>426</ele>
        <time>2007-04-09T16:15:12Z</time>
      </trkpt>
      <trkpt lat="45.1678" lon="4.68621">
        <ele>425</ele>
        <time>2007-04-09T16:15:18Z</time>
      </trkpt>
      <trkpt lat="45.16795" lon="4.68618">
        <ele>425</ele>
        <time>2007-04-09T16:15:21Z</time>
      </trkpt>
      <trkpt lat="45.16801" lon="4.68601">
        <ele>425</ele>
        <time>2007-04-09T16:15:25Z</time>
      </trkpt>
      <trkpt lat="45.16808" lon="4.68558">
        <ele>424</ele>
        <time>2007-04-09T16:15:35Z</time>
      </trkpt>
      <trkpt lat="45.16812" lon="4.6855">
        <ele>424</ele>
        <time>2007-04-09T16:15:37Z</time>
      </trkpt>
      <trkpt lat="45.16827" lon="4.68535">
        <ele>424</ele>
        <time>2007-04-09T16:15:41Z</time>
      </trkpt>
      <trkpt lat="45.16859" lon="4.68515">
        <ele>423</ele>
        <time>2007-04-09T16:15:49Z</time>
      </trkpt>
      <trkpt lat="45.16909" lon="4.6849">
        <ele>425</ele>
        <time>2007-04-09T16:16:02Z</time>
      </trkpt>
      <trkpt lat="45.16939" lon="4.68483">
        <ele>425</ele>
        <time>2007-04-09T16:16:11Z</time>
      </trkpt>
      <trkpt lat="45.16988" lon="4.68472">
        <ele>427</ele>
        <time>2007-04-09T16:16:27Z</time>
      </trkpt>
      <trkpt lat="45.17018" lon="4.68462">
        <ele>431</ele>
        <time>2007-04-09T16:16:40Z</time>
      </trkpt>
      <trkpt lat="45.17042" lon="4.68447">
        <ele>432</ele>
        <time>2007-04-09T16:16:52Z</time>
      </trkpt>
      <trkpt lat="45.1707" lon="4.68432">
        <ele>432</ele>
        <time>2007-04-09T16:17:05Z</time>
      </trkpt>
      <trkpt lat="45.17106" lon="4.68423">
        <ele>433</ele>
        <time>2007-04-09T16:17:18Z</time>
      </trkpt>
      <trkpt lat="45.17149" lon="4.68447">
        <ele>431</ele>
        <time>2007-04-09T16:17:28Z</time>
      </trkpt>
      <trkpt lat="45.17158" lon="4.68453">
        <ele>431</ele>
        <time>2007-04-09T16:17:30Z</time>
      </trkpt>
      <trkpt lat="45.17196" lon="4.68466">
        <ele>430</ele>
        <time>2007-04-09T16:17:37Z</time>
      </trkpt>
      <trkpt lat="45.17207" lon="4.68455">
        <ele>429</ele>
        <time>2007-04-09T16:17:42Z</time>
      </trkpt>
      <trkpt lat="45.17205" lon="4.68445">
        <ele>429</ele>
        <time>2007-04-09T16:17:44Z</time>
      </trkpt>
      <trkpt lat="45.17183" lon="4.68372">
        <ele>430</ele>
        <time>2007-04-09T16:17:58Z</time>
      </trkpt>
      <trkpt lat="45.1716" lon="4.68294">
        <ele>432</ele>
        <time>2007-04-09T16:18:14Z</time>
      </trkpt>
      <trkpt lat="45.17147" lon="4.6823">
        <ele>434</ele>
        <time>2007-04-09T16:18:29Z</time>
      </trkpt>
      <trkpt lat="45.17125" lon="4.68191">
        <ele>435</ele>
        <time>2007-04-09T16:18:40Z</time>
      </trkpt>
      <trkpt lat="45.17089" lon="4.68148">
        <ele>437</ele>
        <time>2007-04-09T16:18:57Z</time>
      </trkpt>
      <trkpt lat="45.17067" lon="4.68121">
        <ele>437</ele>
        <time>2007-04-09T16:19:07Z</time>
      </trkpt>
      <trkpt lat="45.17033" lon="4.68078">
        <ele>438</ele>
        <time>2007-04-09T16:19:22Z</time>
      </trkpt>
      <trkpt lat="45.17012" lon="4.68039">
        <ele>439</ele>
        <time>2007-04-09T16:19:35Z</time>
      </trkpt>
      <trkpt lat="45.16982" lon="4.6799">
        <ele>441</ele>
        <time>2007-04-09T16:19:52Z</time>
      </trkpt>
      <trkpt lat="45.16958" lon="4.67951">
        <ele>443</ele>
        <time>2007-04-09T16:20:07Z</time>
      </trkpt>
      <trkpt lat="45.16934" lon="4.67919">
        <ele>444</ele>
        <time>2007-04-09T16:20:20Z</time>
      </trkpt>
      <trkpt lat="45.16904" lon="4.6788">
        <ele>444</ele>
        <time>2007-04-09T16:20:34Z</time>
      </trkpt>
      <trkpt lat="45.16879" lon="4.67857">
        <ele>444</ele>
        <time>2007-04-09T16:20:44Z</time>
      </trkpt>
      <trkpt lat="45.16849" lon="4.67835">
        <ele>444</ele>
        <time>2007-04-09T16:20:54Z</time>
      </trkpt>
      <trkpt lat="45.16846" lon="4.6782">
        <ele>444</ele>
        <time>2007-04-09T16:20:58Z</time>
      </trkpt>
      <trkpt lat="45.16853" lon="4.67743">
        <ele>445</ele>
        <time>2007-04-09T16:21:16Z</time>
      </trkpt>
      <trkpt lat="45.16857" lon="4.67679">
        <ele>447</ele>
        <time>2007-04-09T16:21:32Z</time>
      </trkpt>
      <trkpt lat="45.16857" lon="4.67623">
        <ele>449</ele>
        <time>2007-04-09T16:21:46Z</time>
      </trkpt>
      <trkpt lat="45.16857" lon="4.67573">
        <ele>447</ele>
        <time>2007-04-09T16:21:56Z</time>
      </trkpt>
      <trkpt lat="45.16868" lon="4.67498">
        <ele>447</ele>
        <time>2007-04-09T16:22:09Z</time>
      </trkpt>
      <trkpt lat="45.16876" lon="4.67432">
        <ele>449</ele>
        <time>2007-04-09T16:22:24Z</time>
      </trkpt>
      <trkpt lat="45.169" lon="4.67374">
        <ele>450</ele>
        <time>2007-04-09T16:22:40Z</time>
      </trkpt>
      <trkpt lat="45.16911" lon="4.67316">
        <ele>450</ele>
        <time>2007-04-09T16:22:52Z</time>
      </trkpt>
      <trkpt lat="45.16898" lon="4.67267">
        <ele>451</ele>
        <time>2007-04-09T16:23:02Z</time>
      </trkpt>
      <trkpt lat="45.16887" lon="4.67222">
        <ele>451</ele>
        <time>2007-04-09T16:23:13Z</time>
      </trkpt>
      <trkpt lat="45.16887" lon="4.67219">
        <ele>451</ele>
        <time>2007-04-09T16:23:14Z</time>
      </trkpt>
      <trkpt lat="45.16889" lon="4.67217">
        <ele>450</ele>
        <time>2007-04-09T16:23:23Z</time>
      </trkpt>
      <trkpt lat="45.16889" lon="4.67219">
        <ele>447</ele>
        <time>2007-04-09T16:24:42Z</time>
      </trkpt>
      <trkpt lat="45.16879" lon="4.67211">
        <ele>448</ele>
        <time>2007-04-09T16:24:47Z</time>
      </trkpt>
      <trkpt lat="45.16849" lon="4.67183">
        <ele>450</ele>
        <time>2007-04-09T16:24:58Z</time>
      </trkpt>
      <trkpt lat="45.16827" lon="4.67146">
        <ele>452</ele>
        <time>2007-04-09T16:25:09Z</time>
      </trkpt>
      <trkpt lat="45.16808" lon="4.67088">
        <ele>455</ele>
        <time>2007-04-09T16:25:22Z</time>
      </trkpt>
      <trkpt lat="45.16771" lon="4.67028">
        <ele>456</ele>
        <time>2007-04-09T16:25:38Z</time>
      </trkpt>
      <trkpt lat="45.1675" lon="4.6697">
        <ele>459</ele>
        <time>2007-04-09T16:25:52Z</time>
      </trkpt>
      <trkpt lat="45.16731" lon="4.66921">
        <ele>460</ele>
        <time>2007-04-09T16:26:06Z</time>
      </trkpt>
      <trkpt lat="45.16711" lon="4.66885">
        <ele>461</ele>
        <time>2007-04-09T16:26:17Z</time>
      </trkpt>
      <trkpt lat="45.16694" lon="4.66837">
        <ele>461</ele>
        <time>2007-04-09T16:26:31Z</time>
      </trkpt>
      <trkpt lat="45.16688" lon="4.66784">
        <ele>460</ele>
        <time>2007-04-09T16:26:44Z</time>
      </trkpt>
      <trkpt lat="45.16698" lon="4.66734">
        <ele>460</ele>
        <time>2007-04-09T16:26:55Z</time>
      </trkpt>
      <trkpt lat="45.1672" lon="4.66657">
        <ele>461</ele>
        <time>2007-04-09T16:27:12Z</time>
      </trkpt>
      <trkpt lat="45.16709" lon="4.66636">
        <ele>461</ele>
        <time>2007-04-09T16:27:20Z</time>
      </trkpt>
      <trkpt lat="45.16688" lon="4.66612">
        <ele>462</ele>
        <time>2007-04-09T16:27:31Z</time>
      </trkpt>
      <trkpt lat="45.16649" lon="4.66593">
        <ele>462</ele>
        <time>2007-04-09T16:27:46Z</time>
      </trkpt>
      <trkpt lat="45.16604" lon="4.66573">
        <ele>461</ele>
        <time>2007-04-09T16:27:59Z</time>
      </trkpt>
      <trkpt lat="45.16578" lon="4.66533">
        <ele>461</ele>
        <time>2007-04-09T16:28:10Z</time>
      </trkpt>
      <trkpt lat="45.1657" lon="4.66498">
        <ele>461</ele>
        <time>2007-04-09T16:28:18Z</time>
      </trkpt>
      <trkpt lat="45.16565" lon="4.66481">
        <ele>460</ele>
        <time>2007-04-09T16:28:23Z</time>
      </trkpt>
      <trkpt lat="45.16559" lon="4.66481">
        <ele>459</ele>
        <time>2007-04-09T16:28:27Z</time>
      </trkpt>
      <trkpt lat="45.16552" lon="4.66483">
        <ele>459</ele>
        <time>2007-04-09T16:28:29Z</time>
      </trkpt>
      <trkpt lat="45.16525" lon="4.66509">
        <ele>458</ele>
        <time>2007-04-09T16:28:36Z</time>
      </trkpt>
      <trkpt lat="45.16516" lon="4.66535">
        <ele>457</ele>
        <time>2007-04-09T16:28:40Z</time>
      </trkpt>
      <trkpt lat="45.16512" lon="4.6658">
        <ele>457</ele>
        <time>2007-04-09T16:28:46Z</time>
      </trkpt>
      <trkpt lat="45.16507" lon="4.66616">
        <ele>455</ele>
        <time>2007-04-09T16:28:50Z</time>
      </trkpt>
      <trkpt lat="45.16499" lon="4.66634">
        <ele>456</ele>
        <time>2007-04-09T16:28:55Z</time>
      </trkpt>
      <trkpt lat="45.16497" lon="4.66634">
        <ele>455</ele>
        <time>2007-04-09T16:29:11Z</time>
      </trkpt>
      <trkpt lat="45.16499" lon="4.66629">
        <ele>456</ele>
        <time>2007-04-09T16:37:27Z</time>
      </trkpt>
    </trkseg>
  </trk>
</gpx>